SAS927 EKCH-KBOS
Flight info
| Callsign | SAS927 |
|---|---|
| Flight time | 7h 37m |
| Altitude | 38000 |
| Route | LANGO M611 ALASA DCT MIMVA DCT OTBED DCT NISBI DCT DOPEK DCT ARTIX DCT MOGMO DCT MAMUL L60 PENIL UL70 BABRA M144 OGTUG/N0482F400 M144 BAGSO DCT TOBOR/M084F390 DCT 53N020W 53N030W 5230N04000W 50N050W DCT ELSIR/N0473F400 DCT TUSKY DCT EURRO OOSHN5 |
| Aircraft | A359/H-SABDE1E3FGHIJ1J2J3J4J5M1P2RWXYZ/LB2D1 |
Departure
| Time | 2026-05-06 18:17 |
|---|---|
| Airport | Copenhagen Kastrup Airport (EKCH) |
Arrival
| Time | 2026-05-07 01:55 |
|---|---|
| Airport | Boston Logan International Airport (KBOS) |
| Time | Latitude | Longitude | Altitude | Speed | Heading |
|---|---|---|---|---|---|
| 2026-05-06 17:10 | 55.62362 | 12.65083 | 30 ft | 0 kts | 276° |
| 2026-05-06 18:03 | 55.62362 | 12.65082 | 30 ft | 1 kts | 276° |
| 2026-05-06 18:04 | 55.62364 | 12.65046 | 30 ft | 2 kts | 276° |
| 2026-05-06 18:04 | 55.62361 | 12.65091 | 30 ft | 4 kts | 276° |
| 2026-05-06 18:04 | 55.62359 | 12.65136 | 28 ft | 2 kts | 275° |
| 2026-05-06 18:04 | 55.62358 | 12.65176 | 29 ft | 4 kts | 248° |
| 2026-05-06 18:05 | 55.62366 | 12.65199 | 28 ft | 4 kts | 200° |
| 2026-05-06 18:05 | 55.62388 | 12.65204 | 28 ft | 4 kts | 175° |
| 2026-05-06 18:05 | 55.62400 | 12.65202 | 27 ft | 1 kts | 176° |
| 2026-05-06 18:05 | 55.62374 | 12.65205 | 28 ft | 1 kts | 176° |
| 2026-05-06 18:06 | 55.62373 | 12.65205 | 28 ft | 0 kts | 176° |
| 2026-05-06 18:07 | 55.62371 | 12.65205 | 30 ft | 0 kts | 177° |
| 2026-05-06 18:08 | 55.62368 | 12.65205 | 30 ft | 3 kts | 178° |
| 2026-05-06 18:08 | 55.62340 | 12.65206 | 30 ft | 5 kts | 181° |
| 2026-05-06 18:08 | 55.62298 | 12.65203 | 30 ft | 7 kts | 182° |
| 2026-05-06 18:09 | 55.62247 | 12.65195 | 30 ft | 7 kts | 189° |
| 2026-05-06 18:09 | 55.62197 | 12.65163 | 30 ft | 9 kts | 208° |
| 2026-05-06 18:09 | 55.62141 | 12.65103 | 30 ft | 10 kts | 212° |
| 2026-05-06 18:09 | 55.62078 | 12.65029 | 30 ft | 12 kts | 214° |
| 2026-05-06 18:10 | 55.62005 | 12.64942 | 30 ft | 13 kts | 214° |
| 2026-05-06 18:10 | 55.61929 | 12.64852 | 30 ft | 13 kts | 212° |
| 2026-05-06 18:10 | 55.61894 | 12.64814 | 30 ft | 2 kts | 212° |
| 2026-05-06 18:10 | 55.61881 | 12.64799 | 30 ft | 3 kts | 212° |
| 2026-05-06 18:11 | 55.61858 | 12.64773 | 30 ft | 5 kts | 212° |
| 2026-05-06 18:11 | 55.61823 | 12.64734 | 30 ft | 7 kts | 212° |
| 2026-05-06 18:11 | 55.61797 | 12.64704 | 30 ft | 0 kts | 213° |
| 2026-05-06 18:12 | 55.61794 | 12.64701 | 30 ft | 4 kts | 213° |
| 2026-05-06 18:12 | 55.61750 | 12.64650 | 30 ft | 9 kts | 212° |
| 2026-05-06 18:12 | 55.61689 | 12.64581 | 30 ft | 11 kts | 213° |
| 2026-05-06 18:12 | 55.61618 | 12.64497 | 30 ft | 13 kts | 213° |
| 2026-05-06 18:13 | 55.61539 | 12.64405 | 30 ft | 14 kts | 213° |
| 2026-05-06 18:13 | 55.61451 | 12.64305 | 30 ft | 16 kts | 213° |
| 2026-05-06 18:13 | 55.61362 | 12.64202 | 30 ft | 15 kts | 213° |
| 2026-05-06 18:13 | 55.61272 | 12.64099 | 30 ft | 16 kts | 213° |
| 2026-05-06 18:14 | 55.61177 | 12.63989 | 30 ft | 16 kts | 213° |
| 2026-05-06 18:14 | 55.61079 | 12.63877 | 30 ft | 17 kts | 213° |
| 2026-05-06 18:14 | 55.60973 | 12.63754 | 30 ft | 19 kts | 212° |
| 2026-05-06 18:14 | 55.60863 | 12.63631 | 30 ft | 19 kts | 212° |
| 2026-05-06 18:15 | 55.60758 | 12.63511 | 30 ft | 17 kts | 213° |
| 2026-05-06 18:15 | 55.60657 | 12.63388 | 30 ft | 18 kts | 217° |
| 2026-05-06 18:15 | 55.60565 | 12.63250 | 30 ft | 17 kts | 221° |
| 2026-05-06 18:15 | 55.60479 | 12.63135 | 30 ft | 13 kts | 206° |
| 2026-05-06 18:16 | 55.60400 | 12.63171 | 30 ft | 13 kts | 138° |
| 2026-05-06 18:16 | 55.60349 | 12.63291 | 32 ft | 11 kts | 108° |
| 2026-05-06 18:16 | 55.60371 | 12.63389 | 32 ft | 10 kts | 49° |
| 2026-05-06 18:16 | 55.60430 | 12.63486 | 30 ft | 15 kts | 41° |
| 2026-05-06 18:17 | 55.60658 | 12.63843 | 32 ft | 77 kts | 41° |
| 2026-05-06 18:17 | 55.61220 | 12.64706 | 31 ft | 134 kts | 41° |
| 2026-05-06 18:17 | 55.62040 | 12.65946 | 249 ft | 162 kts | 44° |
| 2026-05-06 18:17 | 55.62851 | 12.67214 | 1047 ft | 150 kts | 44° |
| 2026-05-06 18:18 | 55.63660 | 12.68488 | 1491 ft | 165 kts | 45° |
| 2026-05-06 18:18 | 55.64581 | 12.69940 | 1744 ft | 190 kts | 44° |
| 2026-05-06 18:18 | 55.65648 | 12.71593 | 1944 ft | 219 kts | 43° |
| 2026-05-06 18:18 | 55.66879 | 12.73431 | 2309 ft | 241 kts | 42° |
| 2026-05-06 18:19 | 55.68172 | 12.75342 | 2969 ft | 248 kts | 42° |
| 2026-05-06 18:19 | 55.69499 | 12.77305 | 3771 ft | 250 kts | 42° |
| 2026-05-06 18:19 | 55.70834 | 12.79297 | 4521 ft | 252 kts | 42° |
| 2026-05-06 18:19 | 55.72000 | 12.81630 | 5245 ft | 255 kts | 60° |
| 2026-05-06 18:20 | 55.72506 | 12.84627 | 6029 ft | 259 kts | 86° |
| 2026-05-06 18:20 | 55.72140 | 12.87779 | 6716 ft | 269 kts | 115° |
| 2026-05-06 18:20 | 55.70907 | 12.90300 | 7451 ft | 277 kts | 144° |
| 2026-05-06 18:20 | 55.69094 | 12.91439 | 8208 ft | 283 kts | 176° |
| 2026-05-06 18:21 | 55.67133 | 12.91125 | 9055 ft | 284 kts | 191° |
| 2026-05-06 18:21 | 55.65170 | 12.90622 | 9871 ft | 288 kts | 182° |
| 2026-05-06 18:21 | 55.63165 | 12.91183 | 10454 ft | 299 kts | 167° |
| 2026-05-06 18:21 | 55.61036 | 12.91587 | 10715 ft | 319 kts | 186° |
| 2026-05-06 18:22 | 55.58900 | 12.90347 | 11005 ft | 333 kts | 213° |
| 2026-05-06 18:22 | 55.57138 | 12.87624 | 11611 ft | 339 kts | 227° |
| 2026-05-06 18:22 | 55.55517 | 12.84573 | 12361 ft | 343 kts | 228° |
| 2026-05-06 18:22 | 55.53873 | 12.81491 | 13112 ft | 346 kts | 228° |
| 2026-05-06 18:23 | 55.52337 | 12.78189 | 13848 ft | 349 kts | 236° |
| 2026-05-06 18:23 | 55.51062 | 12.74534 | 14498 ft | 352 kts | 241° |
| 2026-05-06 18:23 | 55.49874 | 12.70727 | 15148 ft | 355 kts | 242° |
| 2026-05-06 18:23 | 55.48713 | 12.66858 | 15803 ft | 358 kts | 243° |
| 2026-05-06 18:24 | 55.47561 | 12.62947 | 16453 ft | 361 kts | 243° |
| 2026-05-06 18:24 | 55.46407 | 12.58990 | 17098 ft | 365 kts | 243° |
| 2026-05-06 18:24 | 55.45248 | 12.54997 | 17806 ft | 368 kts | 243° |
| 2026-05-06 18:24 | 55.44080 | 12.50968 | 18464 ft | 371 kts | 243° |
| 2026-05-06 18:25 | 55.42903 | 12.46908 | 18864 ft | 372 kts | 243° |
| 2026-05-06 18:25 | 55.41724 | 12.42845 | 19220 ft | 375 kts | 243° |
| 2026-05-06 18:25 | 55.40534 | 12.38748 | 19830 ft | 377 kts | 243° |
| 2026-05-06 18:25 | 55.39335 | 12.34630 | 20511 ft | 378 kts | 243° |
| 2026-05-06 18:26 | 55.38130 | 12.30493 | 21153 ft | 381 kts | 243° |
| 2026-05-06 18:26 | 55.36916 | 12.26335 | 21769 ft | 383 kts | 243° |
| 2026-05-06 18:26 | 55.35696 | 12.22161 | 22396 ft | 386 kts | 243° |
| 2026-05-06 18:26 | 55.34463 | 12.17953 | 23024 ft | 388 kts | 243° |
| 2026-05-06 18:27 | 55.33222 | 12.13724 | 23602 ft | 391 kts | 243° |
| 2026-05-06 18:27 | 55.31969 | 12.09460 | 24098 ft | 394 kts | 243° |
| 2026-05-06 18:27 | 55.30704 | 12.05165 | 24570 ft | 398 kts | 243° |
| 2026-05-06 18:27 | 55.29427 | 12.00837 | 25036 ft | 401 kts | 242° |
| 2026-05-06 18:28 | 55.28141 | 11.96484 | 25520 ft | 404 kts | 242° |
| 2026-05-06 18:28 | 55.26840 | 11.92094 | 25989 ft | 407 kts | 242° |
| 2026-05-06 18:28 | 55.25532 | 11.87684 | 26474 ft | 410 kts | 242° |
| 2026-05-06 18:28 | 55.24209 | 11.83235 | 26934 ft | 413 kts | 242° |
| 2026-05-06 18:29 | 55.22876 | 11.78759 | 27393 ft | 416 kts | 241° |
| 2026-05-06 18:29 | 55.21532 | 11.74256 | 27848 ft | 419 kts | 241° |
| 2026-05-06 18:29 | 55.20181 | 11.69736 | 28293 ft | 422 kts | 241° |
| 2026-05-06 18:29 | 55.18830 | 11.65229 | 28745 ft | 424 kts | 241° |
| 2026-05-06 18:30 | 55.17451 | 11.60633 | 29162 ft | 427 kts | 240° |
| 2026-05-06 18:30 | 55.16062 | 11.56015 | 29587 ft | 431 kts | 240° |
| 2026-05-06 18:30 | 55.14661 | 11.51365 | 29968 ft | 434 kts | 240° |
| 2026-05-06 18:30 | 55.13253 | 11.46700 | 30336 ft | 436 kts | 240° |
| 2026-05-06 18:31 | 55.11830 | 11.41998 | 30707 ft | 438 kts | 240° |
| 2026-05-06 18:31 | 55.10402 | 11.37284 | 31067 ft | 440 kts | 240° |
| 2026-05-06 18:31 | 55.08965 | 11.32553 | 31411 ft | 442 kts | 240° |
| 2026-05-06 18:31 | 55.07517 | 11.27795 | 31740 ft | 444 kts | 240° |
| 2026-05-06 18:32 | 55.06065 | 11.23031 | 32066 ft | 446 kts | 241° |
| 2026-05-06 18:32 | 55.04605 | 11.18252 | 32376 ft | 448 kts | 241° |
| 2026-05-06 18:32 | 55.03131 | 11.13437 | 32656 ft | 450 kts | 241° |
| 2026-05-06 18:32 | 55.01653 | 11.08617 | 32948 ft | 452 kts | 241° |
| 2026-05-06 18:33 | 55.00163 | 11.03772 | 33232 ft | 454 kts | 241° |
| 2026-05-06 18:33 | 54.98667 | 10.98912 | 33489 ft | 456 kts | 241° |
| 2026-05-06 18:33 | 54.97162 | 10.94037 | 33800 ft | 457 kts | 241° |
| 2026-05-06 18:33 | 54.95671 | 10.89165 | 34137 ft | 456 kts | 242° |
| 2026-05-06 18:34 | 54.94409 | 10.84106 | 34442 ft | 456 kts | 250° |
| 2026-05-06 18:34 | 54.93477 | 10.78822 | 34723 ft | 457 kts | 253° |
| 2026-05-06 18:34 | 54.92657 | 10.73557 | 34984 ft | 457 kts | 254° |
| 2026-05-06 18:34 | 54.91868 | 10.68199 | 35254 ft | 457 kts | 254° |
| 2026-05-06 18:35 | 54.91070 | 10.62853 | 35507 ft | 457 kts | 252° |
| 2026-05-06 18:35 | 54.90115 | 10.57583 | 35768 ft | 456 kts | 250° |
| 2026-05-06 18:35 | 54.89080 | 10.52364 | 36015 ft | 456 kts | 249° |
| 2026-05-06 18:35 | 54.88003 | 10.47173 | 36249 ft | 457 kts | 249° |
| 2026-05-06 18:36 | 54.86907 | 10.42000 | 36479 ft | 457 kts | 249° |
| 2026-05-06 18:36 | 54.85804 | 10.36821 | 36718 ft | 457 kts | 249° |
| 2026-05-06 18:36 | 54.84702 | 10.31650 | 36935 ft | 457 kts | 249° |
| 2026-05-06 18:36 | 54.83603 | 10.26476 | 37182 ft | 457 kts | 249° |
| 2026-05-06 18:37 | 54.82504 | 10.21296 | 37396 ft | 457 kts | 249° |
| 2026-05-06 18:37 | 54.81778 | 10.17876 | 37545 ft | 457 kts | 249° |
| 2026-05-06 18:37 | 54.80307 | 10.10947 | 37815 ft | 457 kts | 249° |
| 2026-05-06 18:37 | 54.79205 | 10.05767 | 37929 ft | 460 kts | 249° |
| 2026-05-06 18:38 | 54.76977 | 9.95334 | 37936 ft | 462 kts | 249° |
| 2026-05-06 18:38 | 54.74738 | 9.84909 | 37937 ft | 461 kts | 249° |
| 2026-05-06 18:39 | 54.72494 | 9.74514 | 37929 ft | 462 kts | 249° |
| 2026-05-06 18:40 | 54.69106 | 9.58920 | 37920 ft | 462 kts | 249° |
| 2026-05-06 18:40 | 54.66836 | 9.48537 | 37918 ft | 462 kts | 248° |
| 2026-05-06 18:41 | 54.64554 | 9.38152 | 37917 ft | 462 kts | 248° |
| 2026-05-06 18:41 | 54.62262 | 9.27777 | 37916 ft | 462 kts | 248° |
| 2026-05-06 18:42 | 54.59963 | 9.17416 | 37922 ft | 463 kts | 248° |
| 2026-05-06 18:42 | 54.57652 | 9.07057 | 37920 ft | 463 kts | 248° |
| 2026-05-06 18:43 | 54.55333 | 8.96712 | 37922 ft | 463 kts | 248° |
| 2026-05-06 18:43 | 54.53019 | 8.86439 | 37922 ft | 463 kts | 248° |
| 2026-05-06 18:44 | 54.50681 | 8.76109 | 37924 ft | 463 kts | 248° |
| 2026-05-06 18:44 | 54.48332 | 8.65787 | 37921 ft | 463 kts | 248° |
| 2026-05-06 18:45 | 54.45959 | 8.55406 | 37923 ft | 464 kts | 248° |
| 2026-05-06 18:45 | 54.43610 | 8.45177 | 37924 ft | 464 kts | 248° |
| 2026-05-06 18:46 | 54.41231 | 8.34874 | 37928 ft | 464 kts | 248° |
| 2026-05-06 18:46 | 54.38846 | 8.24590 | 37929 ft | 464 kts | 248° |
| 2026-05-06 18:47 | 54.36451 | 8.14316 | 37933 ft | 464 kts | 248° |
| 2026-05-06 18:47 | 54.34048 | 8.04054 | 37938 ft | 464 kts | 248° |
| 2026-05-06 18:48 | 54.31635 | 7.93798 | 37940 ft | 464 kts | 248° |
| 2026-05-06 18:48 | 54.29606 | 7.85217 | 37941 ft | 464 kts | 248° |
| 2026-05-06 18:49 | 54.27175 | 7.74977 | 37944 ft | 464 kts | 247° |
| 2026-05-06 18:49 | 54.24737 | 7.64753 | 37947 ft | 464 kts | 247° |
| 2026-05-06 18:50 | 54.22290 | 7.54542 | 37946 ft | 464 kts | 247° |
| 2026-05-06 18:50 | 54.19833 | 7.44336 | 37948 ft | 464 kts | 247° |
| 2026-05-06 18:51 | 54.17368 | 7.34148 | 37954 ft | 465 kts | 247° |
| 2026-05-06 18:51 | 54.14891 | 7.23956 | 37954 ft | 465 kts | 247° |
| 2026-05-06 18:52 | 54.12405 | 7.13776 | 37955 ft | 465 kts | 247° |
| 2026-05-06 18:52 | 54.09926 | 7.03670 | 37959 ft | 465 kts | 247° |
| 2026-05-06 18:53 | 54.07422 | 6.93509 | 37960 ft | 465 kts | 247° |
| 2026-05-06 18:53 | 54.04912 | 6.83371 | 37960 ft | 465 kts | 247° |
| 2026-05-06 18:54 | 54.02388 | 6.73222 | 37963 ft | 466 kts | 247° |
| 2026-05-06 18:54 | 53.99854 | 6.63083 | 37964 ft | 466 kts | 246° |
| 2026-05-06 18:55 | 53.97314 | 6.52965 | 37962 ft | 466 kts | 246° |
| 2026-05-06 18:55 | 53.94764 | 6.42849 | 37962 ft | 466 kts | 246° |
| 2026-05-06 18:56 | 53.92201 | 6.32734 | 37970 ft | 466 kts | 246° |
| 2026-05-06 18:56 | 53.89634 | 6.22644 | 37968 ft | 466 kts | 246° |
| 2026-05-06 18:57 | 53.87052 | 6.12546 | 37967 ft | 466 kts | 246° |
| 2026-05-06 18:57 | 53.84466 | 6.02473 | 37969 ft | 466 kts | 246° |
| 2026-05-06 18:58 | 53.81868 | 5.92402 | 37970 ft | 466 kts | 246° |
| 2026-05-06 18:58 | 53.79262 | 5.82340 | 37969 ft | 466 kts | 246° |
| 2026-05-06 18:59 | 53.76650 | 5.72306 | 37972 ft | 466 kts | 246° |
| 2026-05-06 18:59 | 53.74030 | 5.62280 | 37974 ft | 467 kts | 246° |
| 2026-05-06 19:00 | 53.71416 | 5.52325 | 37974 ft | 467 kts | 246° |
| 2026-05-06 19:00 | 53.68778 | 5.42323 | 37975 ft | 467 kts | 246° |
| 2026-05-06 19:01 | 53.66130 | 5.32328 | 37984 ft | 467 kts | 246° |
| 2026-05-06 19:01 | 53.63474 | 5.22343 | 37991 ft | 467 kts | 246° |
| 2026-05-06 19:02 | 53.60809 | 5.12373 | 37993 ft | 467 kts | 246° |
| 2026-05-06 19:02 | 53.58136 | 5.02410 | 37997 ft | 467 kts | 246° |
| 2026-05-06 19:03 | 53.55450 | 4.92447 | 37996 ft | 467 kts | 245° |
| 2026-05-06 19:03 | 53.52757 | 4.82502 | 37995 ft | 467 kts | 245° |
| 2026-05-06 19:04 | 53.50056 | 4.72568 | 37998 ft | 467 kts | 245° |
| 2026-05-06 19:04 | 53.47349 | 4.62652 | 38001 ft | 468 kts | 245° |
| 2026-05-06 19:05 | 53.44628 | 4.52732 | 38002 ft | 467 kts | 245° |
| 2026-05-06 19:05 | 53.41905 | 4.42844 | 37998 ft | 467 kts | 245° |
| 2026-05-06 19:06 | 53.39168 | 4.32953 | 37998 ft | 467 kts | 245° |
| 2026-05-06 19:06 | 53.36427 | 4.23085 | 38003 ft | 468 kts | 245° |
| 2026-05-06 19:07 | 53.33675 | 4.13221 | 37993 ft | 468 kts | 245° |
| 2026-05-06 19:07 | 53.30932 | 4.03430 | 37999 ft | 468 kts | 245° |
| 2026-05-06 19:08 | 53.28160 | 3.93579 | 37999 ft | 468 kts | 245° |
| 2026-05-06 19:08 | 53.25379 | 3.83735 | 38000 ft | 468 kts | 245° |
| 2026-05-06 19:09 | 53.22592 | 3.73914 | 38003 ft | 468 kts | 245° |
| 2026-05-06 19:09 | 53.19797 | 3.64104 | 38001 ft | 468 kts | 245° |
| 2026-05-06 19:10 | 53.16989 | 3.54288 | 38000 ft | 469 kts | 244° |
| 2026-05-06 19:10 | 53.14174 | 3.44492 | 37994 ft | 469 kts | 244° |
| 2026-05-06 19:11 | 53.11622 | 3.34516 | 37989 ft | 468 kts | 253° |
| 2026-05-06 19:11 | 53.10654 | 3.23826 | 37990 ft | 469 kts | 269° |
| 2026-05-06 19:12 | 53.11089 | 3.12977 | 37992 ft | 471 kts | 276° |
| 2026-05-06 19:12 | 53.11943 | 3.02217 | 38004 ft | 472 kts | 276° |
| 2026-05-06 19:13 | 53.12784 | 2.91392 | 38007 ft | 472 kts | 276° |
| 2026-05-06 19:13 | 53.13546 | 2.80535 | 38009 ft | 472 kts | 275° |
| 2026-05-06 19:14 | 53.14265 | 2.69676 | 38011 ft | 472 kts | 275° |
| 2026-05-06 19:14 | 53.14972 | 2.58800 | 38017 ft | 472 kts | 275° |
| 2026-05-06 19:15 | 53.15671 | 2.47938 | 38019 ft | 472 kts | 275° |
| 2026-05-06 19:15 | 53.16363 | 2.37072 | 38017 ft | 472 kts | 275° |
| 2026-05-06 19:16 | 53.17044 | 2.26210 | 38017 ft | 471 kts | 275° |
| 2026-05-06 19:16 | 53.17715 | 2.15354 | 38019 ft | 471 kts | 275° |
| 2026-05-06 19:17 | 53.18377 | 2.04476 | 38024 ft | 471 kts | 275° |
| 2026-05-06 19:17 | 53.19028 | 1.93608 | 38024 ft | 471 kts | 275° |
| 2026-05-06 19:18 | 53.19669 | 1.82730 | 38025 ft | 472 kts | 275° |
| 2026-05-06 19:18 | 53.20302 | 1.71840 | 38024 ft | 471 kts | 275° |
| 2026-05-06 19:19 | 53.20923 | 1.60954 | 38029 ft | 471 kts | 275° |
| 2026-05-06 19:19 | 53.21536 | 1.50050 | 38029 ft | 471 kts | 275° |
| 2026-05-06 19:20 | 53.22138 | 1.39161 | 38032 ft | 471 kts | 275° |
| 2026-05-06 19:20 | 53.22730 | 1.28273 | 38030 ft | 471 kts | 275° |
| 2026-05-06 19:21 | 53.23311 | 1.17387 | 38037 ft | 471 kts | 275° |
| 2026-05-06 19:21 | 53.23883 | 1.06501 | 38035 ft | 471 kts | 275° |
| 2026-05-06 19:22 | 53.24444 | 0.95607 | 38037 ft | 471 kts | 275° |
| 2026-05-06 19:22 | 53.24996 | 0.84711 | 38037 ft | 471 kts | 274° |
| 2026-05-06 19:23 | 53.25538 | 0.73816 | 38036 ft | 471 kts | 274° |
| 2026-05-06 19:23 | 53.26066 | 0.62994 | 38044 ft | 471 kts | 274° |
| 2026-05-06 19:24 | 53.26587 | 0.52104 | 38041 ft | 471 kts | 274° |
| 2026-05-06 19:24 | 53.27100 | 0.41195 | 38042 ft | 471 kts | 274° |
| 2026-05-06 19:25 | 53.27602 | 0.30271 | 38044 ft | 472 kts | 274° |
| 2026-05-06 19:25 | 53.28095 | 0.19340 | 38049 ft | 472 kts | 274° |
| 2026-05-06 19:26 | 53.28579 | 0.08391 | 38051 ft | 472 kts | 274° |
| 2026-05-06 19:26 | 53.29406 | -0.02508 | 38050 ft | 472 kts | 279° |
| 2026-05-06 19:27 | 53.30503 | -0.13332 | 38053 ft | 473 kts | 279° |
| 2026-05-06 19:27 | 53.31633 | -0.24170 | 38052 ft | 473 kts | 279° |
| 2026-05-06 19:28 | 53.32750 | -0.35017 | 38053 ft | 473 kts | 279° |
| 2026-05-06 19:28 | 53.33849 | -0.45863 | 38050 ft | 473 kts | 279° |
| 2026-05-06 19:29 | 53.34936 | -0.56729 | 38052 ft | 473 kts | 279° |
| 2026-05-06 19:29 | 53.36015 | -0.67598 | 38056 ft | 473 kts | 279° |
| 2026-05-06 19:30 | 53.37088 | -0.78467 | 38055 ft | 473 kts | 279° |
| 2026-05-06 19:30 | 53.38144 | -0.89337 | 38056 ft | 473 kts | 279° |
| 2026-05-06 19:31 | 53.39198 | -1.00222 | 38056 ft | 473 kts | 279° |
| 2026-05-06 19:31 | 53.40574 | -1.14693 | 38052 ft | 473 kts | 279° |
| 2026-05-06 19:32 | 53.41596 | -1.25575 | 38053 ft | 472 kts | 279° |
| 2026-05-06 19:32 | 53.42608 | -1.36467 | 38048 ft | 473 kts | 279° |
| 2026-05-06 19:33 | 53.43610 | -1.47359 | 38049 ft | 473 kts | 279° |
| 2026-05-06 19:33 | 53.44608 | -1.58260 | 38044 ft | 473 kts | 279° |
| 2026-05-06 19:34 | 53.45594 | -1.69174 | 38045 ft | 473 kts | 279° |
| 2026-05-06 19:34 | 53.46558 | -1.80002 | 38042 ft | 472 kts | 279° |
| 2026-05-06 19:35 | 53.47527 | -1.90921 | 38043 ft | 473 kts | 279° |
| 2026-05-06 19:35 | 53.48479 | -2.01836 | 38042 ft | 473 kts | 278° |
| 2026-05-06 19:36 | 53.49420 | -2.12748 | 38042 ft | 473 kts | 278° |
| 2026-05-06 19:36 | 53.50356 | -2.23698 | 38043 ft | 473 kts | 278° |
| 2026-05-06 19:37 | 53.51280 | -2.34634 | 38040 ft | 473 kts | 278° |
| 2026-05-06 19:37 | 53.52194 | -2.45570 | 38038 ft | 473 kts | 278° |
| 2026-05-06 19:38 | 53.53098 | -2.56509 | 38029 ft | 473 kts | 278° |
| 2026-05-06 19:38 | 53.53992 | -2.67460 | 38015 ft | 473 kts | 278° |
| 2026-05-06 19:39 | 53.54877 | -2.78416 | 38017 ft | 473 kts | 278° |
| 2026-05-06 19:39 | 53.55746 | -2.89304 | 38013 ft | 473 kts | 278° |
| 2026-05-06 19:40 | 53.56610 | -3.00263 | 38015 ft | 473 kts | 278° |
| 2026-05-06 19:40 | 53.57465 | -3.11232 | 38019 ft | 473 kts | 278° |
| 2026-05-06 19:41 | 53.58308 | -3.22196 | 38015 ft | 473 kts | 278° |
| 2026-05-06 19:41 | 53.59144 | -3.33192 | 38014 ft | 473 kts | 278° |
| 2026-05-06 19:42 | 53.59969 | -3.44170 | 38017 ft | 473 kts | 278° |
| 2026-05-06 19:42 | 53.60783 | -3.55157 | 38006 ft | 473 kts | 278° |
| 2026-05-06 19:43 | 53.61588 | -3.66147 | 38007 ft | 473 kts | 278° |
| 2026-05-06 19:43 | 53.62205 | -3.77176 | 38003 ft | 473 kts | 275° |
| 2026-05-06 19:44 | 53.62584 | -3.88242 | 38007 ft | 474 kts | 274° |
| 2026-05-06 19:44 | 53.62974 | -3.99321 | 38004 ft | 474 kts | 275° |
| 2026-05-06 19:45 | 53.63395 | -4.10391 | 38002 ft | 473 kts | 275° |
| 2026-05-06 19:45 | 53.63822 | -4.21460 | 38004 ft | 474 kts | 275° |
| 2026-05-06 19:46 | 53.64235 | -4.32544 | 38001 ft | 474 kts | 275° |
| 2026-05-06 19:46 | 53.64641 | -4.43625 | 38003 ft | 474 kts | 275° |
| 2026-05-06 19:47 | 53.65041 | -4.54708 | 38003 ft | 474 kts | 275° |
| 2026-05-06 19:47 | 53.65422 | -4.65800 | 38009 ft | 474 kts | 274° |
| 2026-05-06 19:48 | 53.65793 | -4.76888 | 38007 ft | 474 kts | 274° |
| 2026-05-06 19:48 | 53.66159 | -4.87972 | 38000 ft | 474 kts | 274° |
| 2026-05-06 19:49 | 53.66519 | -4.99076 | 37999 ft | 474 kts | 274° |
| 2026-05-06 19:49 | 53.66867 | -5.10179 | 37996 ft | 474 kts | 274° |
| 2026-05-06 19:50 | 53.67205 | -5.21204 | 37994 ft | 474 kts | 274° |
| 2026-05-06 19:50 | 53.67523 | -5.32300 | 37994 ft | 474 kts | 274° |
| 2026-05-06 19:51 | 53.67828 | -5.43402 | 37993 ft | 474 kts | 274° |
| 2026-05-06 19:51 | 53.67603 | -5.54508 | 37988 ft | 475 kts | 265° |
| 2026-05-06 19:52 | 53.66763 | -5.65567 | 37989 ft | 476 kts | 264° |
| 2026-05-06 19:52 | 53.65821 | -5.76614 | 37988 ft | 476 kts | 263° |
| 2026-05-06 19:53 | 53.64868 | -5.87658 | 37981 ft | 476 kts | 263° |
| 2026-05-06 19:53 | 53.63918 | -5.98693 | 37978 ft | 476 kts | 263° |
| 2026-05-06 19:54 | 53.62964 | -6.09730 | 37971 ft | 476 kts | 263° |
| 2026-05-06 19:54 | 53.62000 | -6.20770 | 37966 ft | 476 kts | 263° |
| 2026-05-06 19:55 | 53.61026 | -6.31798 | 37966 ft | 476 kts | 263° |
| 2026-05-06 19:55 | 53.60043 | -6.42814 | 37965 ft | 476 kts | 263° |
| 2026-05-06 19:56 | 53.59047 | -6.53835 | 37957 ft | 476 kts | 263° |
| 2026-05-06 19:56 | 53.58044 | -6.64838 | 37962 ft | 476 kts | 263° |
| 2026-05-06 19:57 | 53.57029 | -6.75846 | 37959 ft | 476 kts | 263° |
| 2026-05-06 19:57 | 53.56005 | -6.86836 | 37959 ft | 476 kts | 263° |
| 2026-05-06 19:58 | 53.54970 | -6.97832 | 37961 ft | 476 kts | 263° |
| 2026-05-06 19:58 | 53.53925 | -7.08820 | 37959 ft | 476 kts | 263° |
| 2026-05-06 19:59 | 53.52878 | -7.19729 | 37961 ft | 476 kts | 263° |
| 2026-05-06 19:59 | 53.51812 | -7.30716 | 37958 ft | 476 kts | 263° |
| 2026-05-06 20:00 | 53.50735 | -7.41703 | 37960 ft | 477 kts | 262° |
| 2026-05-06 20:00 | 53.49648 | -7.52690 | 37964 ft | 477 kts | 262° |
| 2026-05-06 20:01 | 53.48551 | -7.63668 | 37964 ft | 477 kts | 262° |
| 2026-05-06 20:01 | 53.47444 | -7.74649 | 37967 ft | 477 kts | 262° |
| 2026-05-06 20:02 | 53.46325 | -7.85628 | 37961 ft | 477 kts | 262° |
| 2026-05-06 20:02 | 53.45198 | -7.96592 | 37966 ft | 477 kts | 262° |
| 2026-05-06 20:03 | 53.44060 | -8.07555 | 37963 ft | 477 kts | 262° |
| 2026-05-06 20:03 | 53.42911 | -8.18520 | 37969 ft | 477 kts | 262° |
| 2026-05-06 20:04 | 53.41754 | -8.29469 | 37971 ft | 477 kts | 262° |
| 2026-05-06 20:04 | 53.40586 | -8.40416 | 37972 ft | 477 kts | 262° |
| 2026-05-06 20:05 | 53.39409 | -8.51339 | 37974 ft | 477 kts | 262° |
| 2026-05-06 20:05 | 53.38222 | -8.62269 | 37973 ft | 477 kts | 262° |
| 2026-05-06 20:06 | 53.37024 | -8.73192 | 37973 ft | 477 kts | 261° |
| 2026-05-06 20:06 | 53.35817 | -8.84108 | 37976 ft | 477 kts | 261° |
| 2026-05-06 20:07 | 53.34608 | -8.94948 | 37980 ft | 477 kts | 261° |
| 2026-05-06 20:07 | 53.33380 | -9.05858 | 37976 ft | 477 kts | 261° |
| 2026-05-06 20:08 | 53.32142 | -9.16762 | 37977 ft | 477 kts | 261° |
| 2026-05-06 20:08 | 53.30893 | -9.27669 | 37979 ft | 477 kts | 261° |
| 2026-05-06 20:09 | 53.29635 | -9.38559 | 37978 ft | 477 kts | 261° |
| 2026-05-06 20:09 | 53.28367 | -9.49453 | 37982 ft | 478 kts | 261° |
| 2026-05-06 20:10 | 53.27088 | -9.60343 | 37980 ft | 478 kts | 261° |
| 2026-05-06 20:10 | 53.25799 | -9.71229 | 37982 ft | 478 kts | 261° |
| 2026-05-06 20:11 | 53.24501 | -9.82100 | 37981 ft | 478 kts | 260° |
| 2026-05-06 20:11 | 53.23191 | -9.92977 | 37980 ft | 478 kts | 260° |
| 2026-05-06 20:12 | 53.21872 | -10.03843 | 37977 ft | 478 kts | 260° |
| 2026-05-06 20:12 | 53.20544 | -10.14697 | 37979 ft | 478 kts | 260° |
| 2026-05-06 20:13 | 53.19205 | -10.25550 | 37981 ft | 478 kts | 260° |
| 2026-05-06 20:13 | 53.17856 | -10.36402 | 37979 ft | 478 kts | 260° |
| 2026-05-06 20:14 | 53.16498 | -10.47243 | 37982 ft | 478 kts | 259° |
| 2026-05-06 20:14 | 53.15129 | -10.58078 | 37979 ft | 478 kts | 259° |
| 2026-05-06 20:15 | 53.13751 | -10.68905 | 37983 ft | 478 kts | 259° |
| 2026-05-06 20:15 | 53.12361 | -10.79742 | 37976 ft | 478 kts | 259° |
| 2026-05-06 20:16 | 53.10962 | -10.90562 | 37979 ft | 478 kts | 259° |
| 2026-05-06 20:16 | 53.09553 | -11.01374 | 37977 ft | 478 kts | 259° |
| 2026-05-06 20:17 | 53.08375 | -11.10357 | 37975 ft | 478 kts | 259° |
| 2026-05-06 20:17 | 53.06950 | -11.21149 | 37986 ft | 478 kts | 259° |
| 2026-05-06 20:18 | 53.05513 | -11.31943 | 37974 ft | 478 kts | 259° |
| 2026-05-06 20:18 | 53.04069 | -11.42718 | 37972 ft | 478 kts | 258° |
| 2026-05-06 20:19 | 53.02613 | -11.53492 | 37988 ft | 478 kts | 258° |
| 2026-05-06 20:19 | 53.01150 | -11.64251 | 37985 ft | 478 kts | 258° |
| 2026-05-06 20:20 | 52.99675 | -11.75008 | 37970 ft | 478 kts | 258° |
| 2026-05-06 20:20 | 52.98192 | -11.85751 | 37967 ft | 478 kts | 258° |
| 2026-05-06 20:21 | 52.96699 | -11.96492 | 37979 ft | 478 kts | 258° |
| 2026-05-06 20:21 | 52.95195 | -12.07229 | 37968 ft | 478 kts | 258° |
| 2026-05-06 20:22 | 52.93684 | -12.17945 | 37983 ft | 478 kts | 258° |
| 2026-05-06 20:22 | 52.92161 | -12.28668 | 37979 ft | 478 kts | 258° |
| 2026-05-06 20:23 | 52.90629 | -12.39376 | 37977 ft | 478 kts | 257° |
| 2026-05-06 20:23 | 52.89089 | -12.50070 | 37973 ft | 477 kts | 257° |
| 2026-05-06 20:24 | 52.87538 | -12.60759 | 37976 ft | 477 kts | 257° |
| 2026-05-06 20:24 | 52.85979 | -12.71440 | 37975 ft | 477 kts | 257° |
| 2026-05-06 20:25 | 52.84419 | -12.82045 | 37975 ft | 477 kts | 257° |
| 2026-05-06 20:25 | 52.82841 | -12.92703 | 37980 ft | 477 kts | 257° |
| 2026-05-06 20:26 | 52.81254 | -13.03353 | 37972 ft | 477 kts | 257° |
| 2026-05-06 20:26 | 52.79657 | -13.13998 | 37974 ft | 477 kts | 257° |
| 2026-05-06 20:27 | 52.78050 | -13.24638 | 37975 ft | 477 kts | 257° |
| 2026-05-06 20:27 | 52.76433 | -13.35271 | 37974 ft | 477 kts | 256° |
| 2026-05-06 20:28 | 52.74807 | -13.45890 | 37970 ft | 477 kts | 256° |
| 2026-05-06 20:28 | 52.73171 | -13.56507 | 37975 ft | 477 kts | 256° |
| 2026-05-06 20:29 | 52.71526 | -13.67116 | 37975 ft | 478 kts | 256° |
| 2026-05-06 20:29 | 52.69870 | -13.77727 | 37975 ft | 477 kts | 256° |
| 2026-05-06 20:30 | 52.67372 | -13.93600 | 37968 ft | 477 kts | 256° |
| 2026-05-06 20:31 | 52.65693 | -14.04183 | 37972 ft | 477 kts | 256° |
| 2026-05-06 20:31 | 52.64007 | -14.14743 | 37969 ft | 477 kts | 256° |
| 2026-05-06 20:32 | 52.62312 | -14.25298 | 37973 ft | 477 kts | 256° |
| 2026-05-06 20:32 | 52.60608 | -14.35842 | 37969 ft | 477 kts | 255° |
| 2026-05-06 20:33 | 52.58893 | -14.46380 | 37966 ft | 477 kts | 255° |
| 2026-05-06 20:33 | 52.57170 | -14.56905 | 37967 ft | 477 kts | 255° |
| 2026-05-06 20:34 | 52.55440 | -14.67416 | 37968 ft | 476 kts | 255° |
| 2026-05-06 20:34 | 52.53700 | -14.77915 | 37973 ft | 476 kts | 255° |
| 2026-05-06 20:35 | 52.51963 | -14.88336 | 37974 ft | 476 kts | 255° |
| 2026-05-06 20:35 | 52.50663 | -14.99047 | 37975 ft | 476 kts | 266° |
| 2026-05-06 20:36 | 52.51161 | -15.09824 | 37987 ft | 482 kts | 279° |
| 2026-05-06 20:36 | 52.52427 | -15.20719 | 37977 ft | 489 kts | 281° |
| 2026-05-06 20:37 | 52.53804 | -15.31696 | 37969 ft | 492 kts | 281° |
| 2026-05-06 20:37 | 52.54481 | -15.37187 | 38325 ft | 486 kts | 281° |
| 2026-05-06 20:37 | 52.55134 | -15.42576 | 38873 ft | 477 kts | 281° |
| 2026-05-06 20:37 | 52.55770 | -15.47897 | 39201 ft | 473 kts | 281° |
| 2026-05-06 20:38 | 52.56397 | -15.53203 | 39400 ft | 473 kts | 280° |
| 2026-05-06 20:38 | 52.57018 | -15.58504 | 39557 ft | 473 kts | 280° |
| 2026-05-06 20:38 | 52.57637 | -15.63814 | 39708 ft | 473 kts | 280° |
| 2026-05-06 20:38 | 52.58253 | -15.69127 | 39859 ft | 473 kts | 280° |
| 2026-05-06 20:39 | 52.58868 | -15.74438 | 39952 ft | 474 kts | 280° |
| 2026-05-06 20:39 | 52.60094 | -15.85097 | 39967 ft | 474 kts | 280° |
| 2026-05-06 20:40 | 52.61312 | -15.95758 | 39967 ft | 474 kts | 280° |
| 2026-05-06 20:40 | 52.62517 | -16.06403 | 39964 ft | 473 kts | 280° |
| 2026-05-06 20:41 | 52.63713 | -16.17056 | 39966 ft | 473 kts | 279° |
| 2026-05-06 20:41 | 52.64899 | -16.27708 | 39964 ft | 473 kts | 279° |
| 2026-05-06 20:42 | 52.66074 | -16.38359 | 39964 ft | 472 kts | 279° |
| 2026-05-06 20:42 | 52.67239 | -16.49009 | 39965 ft | 472 kts | 279° |
| 2026-05-06 20:43 | 52.68394 | -16.59659 | 39966 ft | 472 kts | 279° |
| 2026-05-06 20:43 | 52.69539 | -16.70318 | 39965 ft | 472 kts | 279° |
| 2026-05-06 20:44 | 52.70674 | -16.80970 | 39965 ft | 472 kts | 279° |
| 2026-05-06 20:44 | 52.71799 | -16.91624 | 39963 ft | 471 kts | 279° |
| 2026-05-06 20:45 | 52.72913 | -17.02274 | 39967 ft | 471 kts | 279° |
| 2026-05-06 20:45 | 52.74018 | -17.12939 | 39962 ft | 471 kts | 278° |
| 2026-05-06 20:46 | 52.75114 | -17.23603 | 39965 ft | 471 kts | 278° |
| 2026-05-06 20:46 | 52.76199 | -17.34267 | 39964 ft | 471 kts | 278° |
| 2026-05-06 20:47 | 52.77276 | -17.44942 | 39961 ft | 471 kts | 278° |
| 2026-05-06 20:47 | 52.78343 | -17.55625 | 39960 ft | 471 kts | 278° |
| 2026-05-06 20:48 | 52.79392 | -17.66233 | 39959 ft | 471 kts | 278° |
| 2026-05-06 20:48 | 52.80441 | -17.76936 | 39968 ft | 472 kts | 278° |
| 2026-05-06 20:49 | 52.81479 | -17.87635 | 39967 ft | 472 kts | 278° |
| 2026-05-06 20:49 | 52.82509 | -17.98344 | 39964 ft | 472 kts | 278° |
| 2026-05-06 20:50 | 52.83528 | -18.09062 | 39964 ft | 472 kts | 278° |
| 2026-05-06 20:50 | 52.84539 | -18.19789 | 39963 ft | 472 kts | 278° |
| 2026-05-06 20:51 | 52.85540 | -18.30521 | 39963 ft | 472 kts | 278° |
| 2026-05-06 20:51 | 52.86531 | -18.41258 | 39967 ft | 472 kts | 277° |
| 2026-05-06 20:52 | 52.87513 | -18.52004 | 39965 ft | 472 kts | 277° |
| 2026-05-06 20:52 | 52.88486 | -18.62757 | 39964 ft | 472 kts | 277° |
| 2026-05-06 20:53 | 52.89449 | -18.73525 | 39966 ft | 473 kts | 277° |
| 2026-05-06 20:53 | 52.90403 | -18.84298 | 39967 ft | 473 kts | 277° |
| 2026-05-06 20:54 | 52.91348 | -18.95078 | 39965 ft | 473 kts | 277° |
| 2026-05-06 20:54 | 52.92283 | -19.05869 | 39966 ft | 473 kts | 277° |
| 2026-05-06 20:55 | 52.93209 | -19.16674 | 39970 ft | 473 kts | 277° |
| 2026-05-06 20:55 | 52.94125 | -19.27481 | 39970 ft | 474 kts | 277° |
| 2026-05-06 20:56 | 52.95032 | -19.38292 | 39970 ft | 474 kts | 277° |
| 2026-05-06 20:56 | 52.95929 | -19.49116 | 39970 ft | 474 kts | 277° |
| 2026-05-06 20:57 | 52.96816 | -19.59948 | 39970 ft | 474 kts | 277° |
| 2026-05-06 20:57 | 52.97694 | -19.70778 | 39972 ft | 474 kts | 277° |
| 2026-05-06 20:58 | 52.98556 | -19.81548 | 39976 ft | 474 kts | 277° |
| 2026-05-06 20:58 | 52.99420 | -19.92464 | 39975 ft | 474 kts | 277° |
| 2026-05-06 20:59 | 53.00255 | -20.03318 | 39977 ft | 474 kts | 275° |
| 2026-05-06 20:59 | 53.00746 | -20.14226 | 39977 ft | 474 kts | 272° |
| 2026-05-06 21:00 | 53.01093 | -20.25151 | 39976 ft | 474 kts | 272° |
| 2026-05-06 21:00 | 53.01473 | -20.36074 | 39977 ft | 474 kts | 273° |
| 2026-05-06 21:01 | 53.01884 | -20.46989 | 39980 ft | 474 kts | 273° |
| 2026-05-06 21:01 | 53.02229 | -20.56071 | 39987 ft | 474 kts | 273° |
| 2026-05-06 21:02 | 53.02635 | -20.66997 | 39980 ft | 474 kts | 273° |
| 2026-05-06 21:02 | 53.03029 | -20.77932 | 39978 ft | 474 kts | 273° |
| 2026-05-06 21:03 | 53.03412 | -20.88870 | 39983 ft | 474 kts | 273° |
| 2026-05-06 21:03 | 53.03785 | -20.99811 | 39984 ft | 475 kts | 273° |
| 2026-05-06 21:04 | 53.04148 | -21.10773 | 39986 ft | 475 kts | 273° |
| 2026-05-06 21:04 | 53.04501 | -21.21739 | 39984 ft | 475 kts | 273° |
| 2026-05-06 21:05 | 53.04842 | -21.32635 | 39987 ft | 475 kts | 272° |
| 2026-05-06 21:05 | 53.05176 | -21.43609 | 39985 ft | 476 kts | 272° |
| 2026-05-06 21:06 | 53.05499 | -21.54587 | 39988 ft | 476 kts | 272° |
| 2026-05-06 21:06 | 53.05813 | -21.65588 | 39987 ft | 476 kts | 272° |
| 2026-05-06 21:07 | 53.06117 | -21.76585 | 39989 ft | 476 kts | 272° |
| 2026-05-06 21:07 | 53.06410 | -21.87586 | 39988 ft | 477 kts | 272° |
| 2026-05-06 21:08 | 53.06694 | -21.98599 | 39990 ft | 477 kts | 272° |
| 2026-05-06 21:08 | 53.06967 | -22.09613 | 39992 ft | 477 kts | 272° |
| 2026-05-06 21:09 | 53.07231 | -22.20639 | 39991 ft | 477 kts | 272° |
| 2026-05-06 21:09 | 53.07484 | -22.31666 | 39993 ft | 477 kts | 272° |
| 2026-05-06 21:10 | 53.07727 | -22.42705 | 39990 ft | 478 kts | 272° |
| 2026-05-06 21:10 | 53.07960 | -22.53752 | 39990 ft | 478 kts | 272° |
| 2026-05-06 21:11 | 53.08183 | -22.64798 | 39991 ft | 478 kts | 272° |
| 2026-05-06 21:11 | 53.08396 | -22.75851 | 39993 ft | 478 kts | 272° |
| 2026-05-06 21:12 | 53.08599 | -22.86901 | 39996 ft | 478 kts | 272° |
| 2026-05-06 21:12 | 53.08791 | -22.97966 | 39994 ft | 479 kts | 272° |
| 2026-05-06 21:13 | 53.08974 | -23.09032 | 39993 ft | 479 kts | 272° |
| 2026-05-06 21:13 | 53.09146 | -23.20103 | 39995 ft | 479 kts | 271° |
| 2026-05-06 21:14 | 53.09308 | -23.31178 | 39993 ft | 479 kts | 271° |
| 2026-05-06 21:14 | 53.09459 | -23.42255 | 39997 ft | 479 kts | 271° |
| 2026-05-06 21:15 | 53.09601 | -23.53345 | 39996 ft | 479 kts | 271° |
| 2026-05-06 21:15 | 53.09731 | -23.64364 | 39995 ft | 480 kts | 271° |
| 2026-05-06 21:16 | 53.09852 | -23.75463 | 39995 ft | 480 kts | 271° |
| 2026-05-06 21:16 | 53.09963 | -23.86566 | 39997 ft | 480 kts | 271° |
| 2026-05-06 21:17 | 53.10063 | -23.97679 | 39998 ft | 480 kts | 271° |
| 2026-05-06 21:17 | 53.10153 | -24.08788 | 39999 ft | 480 kts | 271° |
| 2026-05-06 21:18 | 53.10233 | -24.19906 | 39999 ft | 480 kts | 271° |
| 2026-05-06 21:18 | 53.10302 | -24.31025 | 39999 ft | 481 kts | 271° |
| 2026-05-06 21:19 | 53.10361 | -24.42144 | 40000 ft | 481 kts | 271° |
| 2026-05-06 21:19 | 53.10410 | -24.53270 | 40000 ft | 481 kts | 271° |
| 2026-05-06 21:20 | 53.10449 | -24.64398 | 40000 ft | 481 kts | 271° |
| 2026-05-06 21:20 | 53.10477 | -24.75523 | 40004 ft | 481 kts | 270° |
| 2026-05-06 21:21 | 53.10494 | -24.86658 | 40006 ft | 481 kts | 270° |
| 2026-05-06 21:21 | 53.10501 | -24.97786 | 40000 ft | 481 kts | 270° |
| 2026-05-06 21:22 | 53.10498 | -25.08921 | 40004 ft | 481 kts | 270° |
| 2026-05-06 21:22 | 53.10485 | -25.20057 | 40008 ft | 481 kts | 270° |
| 2026-05-06 21:23 | 53.10461 | -25.31198 | 40006 ft | 481 kts | 270° |
| 2026-05-06 21:23 | 53.10426 | -25.42333 | 40008 ft | 481 kts | 270° |
| 2026-05-06 21:24 | 53.10381 | -25.53477 | 40007 ft | 481 kts | 270° |
| 2026-05-06 21:24 | 53.10326 | -25.64610 | 40006 ft | 481 kts | 270° |
| 2026-05-06 21:25 | 53.10261 | -25.75755 | 40007 ft | 481 kts | 270° |
| 2026-05-06 21:25 | 53.10185 | -25.86901 | 40006 ft | 482 kts | 270° |
| 2026-05-06 21:26 | 53.10098 | -25.98038 | 40005 ft | 482 kts | 270° |
| 2026-05-06 21:26 | 53.10002 | -26.09178 | 40007 ft | 481 kts | 270° |
| 2026-05-06 21:27 | 53.09894 | -26.20310 | 40005 ft | 481 kts | 270° |
| 2026-05-06 21:27 | 53.09778 | -26.31371 | 40007 ft | 481 kts | 270° |
| 2026-05-06 21:28 | 53.09650 | -26.42509 | 40006 ft | 481 kts | 270° |
| 2026-05-06 21:28 | 53.09512 | -26.53632 | 40009 ft | 481 kts | 270° |
| 2026-05-06 21:29 | 53.09363 | -26.64763 | 40010 ft | 481 kts | 269° |
| 2026-05-06 21:29 | 53.09204 | -26.75891 | 40005 ft | 481 kts | 269° |
| 2026-05-06 21:30 | 53.09035 | -26.87014 | 40006 ft | 481 kts | 269° |
| 2026-05-06 21:30 | 53.08855 | -26.98136 | 40011 ft | 481 kts | 269° |
| 2026-05-06 21:31 | 53.08666 | -27.09250 | 40008 ft | 481 kts | 269° |
| 2026-05-06 21:31 | 53.08465 | -27.20375 | 40010 ft | 481 kts | 269° |
| 2026-05-06 21:32 | 53.08255 | -27.31498 | 40009 ft | 481 kts | 269° |
| 2026-05-06 21:32 | 53.07918 | -27.48184 | 40010 ft | 481 kts | 269° |
| 2026-05-06 21:33 | 53.07682 | -27.59312 | 40009 ft | 481 kts | 269° |
| 2026-05-06 21:33 | 53.07434 | -27.70445 | 40012 ft | 482 kts | 269° |
| 2026-05-06 21:34 | 53.07176 | -27.81581 | 40010 ft | 482 kts | 269° |
| 2026-05-06 21:34 | 53.06908 | -27.92717 | 40010 ft | 482 kts | 269° |
| 2026-05-06 21:35 | 53.06631 | -28.03780 | 40007 ft | 482 kts | 269° |
| 2026-05-06 21:35 | 53.06343 | -28.14918 | 40005 ft | 482 kts | 269° |
| 2026-05-06 21:36 | 53.06044 | -28.26056 | 40006 ft | 482 kts | 269° |
| 2026-05-06 21:36 | 53.05732 | -28.37198 | 40008 ft | 483 kts | 269° |
| 2026-05-06 21:37 | 53.05409 | -28.48341 | 40008 ft | 483 kts | 269° |
| 2026-05-06 21:37 | 53.05079 | -28.59482 | 40008 ft | 483 kts | 269° |
| 2026-05-06 21:38 | 53.04741 | -28.70626 | 40002 ft | 483 kts | 269° |
| 2026-05-06 21:38 | 53.04390 | -28.81766 | 40002 ft | 483 kts | 269° |
| 2026-05-06 21:39 | 53.04027 | -28.92907 | 40004 ft | 483 kts | 269° |
| 2026-05-06 21:39 | 53.03655 | -29.04047 | 40003 ft | 483 kts | 269° |
| 2026-05-06 21:40 | 53.03269 | -29.15195 | 40003 ft | 484 kts | 269° |
| 2026-05-06 21:40 | 53.02873 | -29.26353 | 40001 ft | 484 kts | 269° |
| 2026-05-06 21:41 | 53.02468 | -29.37515 | 40000 ft | 484 kts | 269° |
| 2026-05-06 21:41 | 53.02053 | -29.48680 | 39997 ft | 484 kts | 269° |
| 2026-05-06 21:42 | 53.01628 | -29.59838 | 39999 ft | 485 kts | 268° |
| 2026-05-06 21:42 | 53.01190 | -29.71012 | 40001 ft | 485 kts | 268° |
| 2026-05-06 21:43 | 53.00741 | -29.82189 | 39995 ft | 485 kts | 268° |
| 2026-05-06 21:43 | 53.00279 | -29.93370 | 39994 ft | 486 kts | 268° |
| 2026-05-06 21:44 | 52.99844 | -30.04555 | 39997 ft | 485 kts | 270° |
| 2026-05-06 21:44 | 52.99744 | -30.15738 | 39993 ft | 484 kts | 272° |
| 2026-05-06 21:45 | 52.99731 | -30.26923 | 39991 ft | 485 kts | 271° |
| 2026-05-06 21:45 | 52.99657 | -30.38136 | 39993 ft | 486 kts | 271° |
| 2026-05-06 21:46 | 52.99535 | -30.49349 | 39990 ft | 486 kts | 271° |
| 2026-05-06 21:46 | 52.99393 | -30.60582 | 39996 ft | 487 kts | 271° |
| 2026-05-06 21:47 | 52.99243 | -30.71825 | 40000 ft | 488 kts | 270° |
| 2026-05-06 21:47 | 52.99085 | -30.83007 | 39992 ft | 488 kts | 270° |
| 2026-05-06 21:48 | 52.98916 | -30.94273 | 39995 ft | 488 kts | 270° |
| 2026-05-06 21:48 | 52.98735 | -31.05543 | 40004 ft | 488 kts | 270° |
| 2026-05-06 21:49 | 52.98544 | -31.16807 | 39998 ft | 489 kts | 270° |
| 2026-05-06 21:49 | 52.98375 | -31.26258 | 39997 ft | 489 kts | 270° |
| 2026-05-06 21:50 | 52.98165 | -31.37449 | 40000 ft | 489 kts | 270° |
| 2026-05-06 21:50 | 52.97944 | -31.48726 | 40004 ft | 489 kts | 270° |
| 2026-05-06 21:51 | 52.97711 | -31.59999 | 40008 ft | 489 kts | 270° |
| 2026-05-06 21:51 | 52.97468 | -31.71280 | 40010 ft | 489 kts | 270° |
| 2026-05-06 21:52 | 52.97215 | -31.82554 | 40015 ft | 489 kts | 270° |
| 2026-05-06 21:52 | 52.96950 | -31.93829 | 40014 ft | 489 kts | 270° |
| 2026-05-06 21:53 | 52.96675 | -32.05105 | 40017 ft | 489 kts | 270° |
| 2026-05-06 21:53 | 52.96389 | -32.16377 | 40022 ft | 489 kts | 270° |
| 2026-05-06 21:54 | 52.96093 | -32.27651 | 40025 ft | 489 kts | 270° |
| 2026-05-06 21:54 | 52.95786 | -32.38920 | 40028 ft | 489 kts | 270° |
| 2026-05-06 21:55 | 52.95468 | -32.50188 | 40031 ft | 489 kts | 269° |
| 2026-05-06 21:55 | 52.95140 | -32.61459 | 40030 ft | 489 kts | 269° |
| 2026-05-06 21:56 | 52.94801 | -32.72724 | 40038 ft | 489 kts | 269° |
| 2026-05-06 21:56 | 52.94451 | -32.83991 | 40043 ft | 489 kts | 269° |
| 2026-05-06 21:57 | 52.94091 | -32.95262 | 40046 ft | 490 kts | 269° |
| 2026-05-06 21:57 | 52.93719 | -33.06529 | 40046 ft | 490 kts | 269° |
| 2026-05-06 21:58 | 52.93337 | -33.17801 | 40052 ft | 490 kts | 269° |
| 2026-05-06 21:58 | 52.92945 | -33.29063 | 40061 ft | 490 kts | 269° |
| 2026-05-06 21:59 | 52.92541 | -33.40329 | 40057 ft | 489 kts | 269° |
| 2026-05-06 21:59 | 52.92128 | -33.51582 | 40064 ft | 489 kts | 269° |
| 2026-05-06 22:00 | 52.91703 | -33.62833 | 40069 ft | 489 kts | 269° |
| 2026-05-06 22:00 | 52.91270 | -33.74080 | 40068 ft | 489 kts | 269° |
| 2026-05-06 22:01 | 52.90825 | -33.85315 | 40073 ft | 489 kts | 269° |
| 2026-05-06 22:01 | 52.90369 | -33.96550 | 40076 ft | 489 kts | 269° |
| 2026-05-06 22:02 | 52.89902 | -34.07787 | 40074 ft | 489 kts | 269° |
| 2026-05-06 22:02 | 52.89425 | -34.19010 | 40082 ft | 489 kts | 269° |
| 2026-05-06 22:03 | 52.88938 | -34.30225 | 40090 ft | 488 kts | 269° |
| 2026-05-06 22:03 | 52.88441 | -34.41444 | 40093 ft | 488 kts | 269° |
| 2026-05-06 22:04 | 52.87932 | -34.52655 | 40092 ft | 488 kts | 269° |
| 2026-05-06 22:04 | 52.87415 | -34.63848 | 40097 ft | 488 kts | 268° |
| 2026-05-06 22:05 | 52.86890 | -34.74960 | 40099 ft | 487 kts | 268° |
| 2026-05-06 22:05 | 52.86352 | -34.86135 | 40098 ft | 487 kts | 268° |
| 2026-05-06 22:06 | 52.85803 | -34.97312 | 40102 ft | 487 kts | 268° |
| 2026-05-06 22:06 | 52.85244 | -35.08477 | 40104 ft | 487 kts | 268° |
| 2026-05-06 22:07 | 52.84674 | -35.19644 | 40110 ft | 487 kts | 268° |
| 2026-05-06 22:07 | 52.84094 | -35.30801 | 40112 ft | 487 kts | 268° |
| 2026-05-06 22:08 | 52.83503 | -35.41953 | 40115 ft | 487 kts | 268° |
| 2026-05-06 22:08 | 52.82903 | -35.53096 | 40118 ft | 487 kts | 268° |
| 2026-05-06 22:09 | 52.82292 | -35.64239 | 40120 ft | 486 kts | 268° |
| 2026-05-06 22:09 | 52.81671 | -35.75376 | 40124 ft | 486 kts | 268° |
| 2026-05-06 22:10 | 52.81040 | -35.86505 | 40125 ft | 486 kts | 268° |
| 2026-05-06 22:10 | 52.80399 | -35.97619 | 40130 ft | 486 kts | 267° |
| 2026-05-06 22:11 | 52.79747 | -36.08732 | 40133 ft | 486 kts | 267° |
| 2026-05-06 22:11 | 52.79085 | -36.19844 | 40136 ft | 486 kts | 267° |
| 2026-05-06 22:12 | 52.78413 | -36.30942 | 40139 ft | 485 kts | 267° |
| 2026-05-06 22:12 | 52.77731 | -36.42032 | 40145 ft | 485 kts | 267° |
| 2026-05-06 22:13 | 52.77039 | -36.53110 | 40142 ft | 485 kts | 267° |
| 2026-05-06 22:13 | 52.76338 | -36.64178 | 40152 ft | 485 kts | 266° |
| 2026-05-06 22:14 | 52.75625 | -36.75251 | 40149 ft | 485 kts | 266° |
| 2026-05-06 22:14 | 52.74909 | -36.86230 | 40150 ft | 484 kts | 266° |
| 2026-05-06 22:15 | 52.74177 | -36.97277 | 40159 ft | 484 kts | 266° |
| 2026-05-06 22:15 | 52.73435 | -37.08321 | 40158 ft | 484 kts | 266° |
| 2026-05-06 22:16 | 52.72683 | -37.19351 | 40160 ft | 484 kts | 266° |
| 2026-05-06 22:16 | 52.71922 | -37.30375 | 40160 ft | 484 kts | 266° |
| 2026-05-06 22:17 | 52.71149 | -37.41397 | 40165 ft | 484 kts | 266° |
| 2026-05-06 22:17 | 52.70368 | -37.52407 | 40166 ft | 483 kts | 266° |
| 2026-05-06 22:18 | 52.69576 | -37.63409 | 40163 ft | 483 kts | 265° |
| 2026-05-06 22:18 | 52.68775 | -37.74403 | 40167 ft | 483 kts | 265° |
| 2026-05-06 22:19 | 52.67963 | -37.85390 | 40171 ft | 483 kts | 265° |
| 2026-05-06 22:19 | 52.67142 | -37.96367 | 40174 ft | 483 kts | 265° |
| 2026-05-06 22:20 | 52.66311 | -38.07336 | 40166 ft | 482 kts | 265° |
| 2026-05-06 22:20 | 52.65471 | -38.18288 | 40170 ft | 482 kts | 265° |
| 2026-05-06 22:21 | 52.64622 | -38.29225 | 40173 ft | 481 kts | 265° |
| 2026-05-06 22:21 | 52.63764 | -38.40142 | 40175 ft | 481 kts | 265° |
| 2026-05-06 22:22 | 52.62895 | -38.51056 | 40172 ft | 480 kts | 265° |
| 2026-05-06 22:22 | 52.62018 | -38.61952 | 40180 ft | 480 kts | 264° |
| 2026-05-06 22:23 | 52.61138 | -38.72762 | 40177 ft | 480 kts | 264° |
| 2026-05-06 22:23 | 52.60241 | -38.83642 | 40186 ft | 480 kts | 264° |
| 2026-05-06 22:24 | 52.59335 | -38.94516 | 40188 ft | 480 kts | 264° |
| 2026-05-06 22:24 | 52.58420 | -39.05369 | 40186 ft | 479 kts | 264° |
| 2026-05-06 22:25 | 52.57495 | -39.16216 | 40184 ft | 479 kts | 264° |
| 2026-05-06 22:25 | 52.56561 | -39.27060 | 40187 ft | 479 kts | 264° |
| 2026-05-06 22:26 | 52.55617 | -39.37888 | 40184 ft | 479 kts | 264° |
| 2026-05-06 22:26 | 52.54664 | -39.48707 | 40189 ft | 478 kts | 263° |
| 2026-05-06 22:27 | 52.53701 | -39.59512 | 40190 ft | 478 kts | 263° |
| 2026-05-06 22:27 | 52.52730 | -39.70311 | 40194 ft | 478 kts | 263° |
| 2026-05-06 22:28 | 52.51748 | -39.81098 | 40193 ft | 477 kts | 263° |
| 2026-05-06 22:28 | 52.50759 | -39.91864 | 40192 ft | 477 kts | 263° |
| 2026-05-06 22:29 | 52.49448 | -40.02545 | 40193 ft | 479 kts | 256° |
| 2026-05-06 22:29 | 52.47495 | -40.12998 | 40193 ft | 479 kts | 254° |
| 2026-05-06 22:30 | 52.45429 | -40.23382 | 40193 ft | 479 kts | 254° |
| 2026-05-06 22:30 | 52.43347 | -40.33759 | 40193 ft | 479 kts | 254° |
| 2026-05-06 22:31 | 52.41269 | -40.44127 | 40197 ft | 479 kts | 254° |
| 2026-05-06 22:31 | 52.39189 | -40.54487 | 40196 ft | 479 kts | 253° |
| 2026-05-06 22:32 | 52.37103 | -40.64833 | 40197 ft | 479 kts | 253° |
| 2026-05-06 22:32 | 52.35010 | -40.75159 | 40192 ft | 478 kts | 253° |
| 2026-05-06 22:33 | 52.32905 | -40.85481 | 40192 ft | 478 kts | 253° |
| 2026-05-06 22:33 | 52.30793 | -40.95789 | 40195 ft | 478 kts | 253° |
| 2026-05-06 22:34 | 52.28673 | -41.06077 | 40193 ft | 478 kts | 253° |
| 2026-05-06 22:34 | 52.26561 | -41.16278 | 40193 ft | 477 kts | 253° |
| 2026-05-06 22:35 | 52.24427 | -41.26530 | 40194 ft | 477 kts | 253° |
| 2026-05-06 22:35 | 52.22286 | -41.36764 | 40193 ft | 477 kts | 252° |
| 2026-05-06 22:36 | 52.20486 | -41.45327 | 40195 ft | 476 kts | 252° |
| 2026-05-06 22:36 | 52.18333 | -41.55526 | 40192 ft | 476 kts | 252° |
| 2026-05-06 22:37 | 52.16171 | -41.65714 | 40198 ft | 475 kts | 252° |
| 2026-05-06 22:37 | 52.14005 | -41.75870 | 40197 ft | 475 kts | 252° |
| 2026-05-06 22:38 | 52.11830 | -41.86013 | 40194 ft | 474 kts | 252° |
| 2026-05-06 22:38 | 52.09663 | -41.96073 | 40193 ft | 474 kts | 252° |
| 2026-05-06 22:39 | 52.07462 | -42.06243 | 40191 ft | 474 kts | 252° |
| 2026-05-06 22:39 | 52.05282 | -42.16262 | 40193 ft | 473 kts | 252° |
| 2026-05-06 22:40 | 52.03079 | -42.26338 | 40192 ft | 473 kts | 252° |
| 2026-05-06 22:40 | 52.00870 | -42.36392 | 40190 ft | 473 kts | 251° |
| 2026-05-06 22:41 | 51.97541 | -42.51453 | 40197 ft | 473 kts | 251° |
| 2026-05-06 22:42 | 51.95315 | -42.61468 | 40187 ft | 472 kts | 251° |
| 2026-05-06 22:42 | 51.93078 | -42.71476 | 40189 ft | 472 kts | 251° |
| 2026-05-06 22:43 | 51.90835 | -42.81468 | 40189 ft | 472 kts | 251° |
| 2026-05-06 22:43 | 51.89707 | -42.86466 | 39973 ft | 472 kts | 254° |
| 2026-05-06 22:43 | 51.88575 | -42.91434 | 40141 ft | 470 kts | 254° |
| 2026-05-06 22:44 | 51.86329 | -43.01347 | 40181 ft | 468 kts | 254° |
| 2026-05-06 22:44 | 51.84086 | -43.11223 | 40184 ft | 468 kts | 254° |
| 2026-05-06 22:45 | 51.81832 | -43.21091 | 40188 ft | 468 kts | 254° |
| 2026-05-06 22:45 | 51.79567 | -43.30952 | 40173 ft | 468 kts | 253° |
| 2026-05-06 22:46 | 51.77295 | -43.40789 | 40180 ft | 468 kts | 253° |
| 2026-05-06 22:46 | 51.75014 | -43.50620 | 40174 ft | 467 kts | 253° |
| 2026-05-06 22:47 | 51.72728 | -43.60428 | 40176 ft | 467 kts | 253° |
| 2026-05-06 22:47 | 51.70435 | -43.70223 | 40173 ft | 466 kts | 253° |
| 2026-05-06 22:48 | 51.68137 | -43.79991 | 40177 ft | 466 kts | 253° |
| 2026-05-06 22:48 | 51.65836 | -43.89733 | 40175 ft | 465 kts | 253° |
| 2026-05-06 22:49 | 51.63527 | -43.99464 | 40175 ft | 465 kts | 253° |
| 2026-05-06 22:49 | 51.61213 | -44.09168 | 40174 ft | 464 kts | 253° |
| 2026-05-06 22:50 | 51.58893 | -44.18860 | 40172 ft | 464 kts | 253° |
| 2026-05-06 22:50 | 51.56567 | -44.28528 | 40171 ft | 463 kts | 252° |
| 2026-05-06 22:51 | 51.54236 | -44.38176 | 40172 ft | 463 kts | 252° |
| 2026-05-06 22:51 | 51.51899 | -44.47807 | 40172 ft | 462 kts | 252° |
| 2026-05-06 22:52 | 51.49572 | -44.57353 | 40173 ft | 462 kts | 252° |
| 2026-05-06 22:52 | 51.47226 | -44.66938 | 40169 ft | 461 kts | 252° |
| 2026-05-06 22:53 | 51.44871 | -44.76515 | 40169 ft | 461 kts | 252° |
| 2026-05-06 22:53 | 51.42513 | -44.86066 | 40165 ft | 460 kts | 252° |
| 2026-05-06 22:54 | 51.40152 | -44.95586 | 40165 ft | 460 kts | 252° |
| 2026-05-06 22:54 | 51.37783 | -45.05098 | 40169 ft | 459 kts | 252° |
| 2026-05-06 22:55 | 51.35410 | -45.14585 | 40168 ft | 459 kts | 252° |
| 2026-05-06 22:55 | 51.33034 | -45.24047 | 40168 ft | 458 kts | 252° |
| 2026-05-06 22:56 | 51.30666 | -45.33433 | 40170 ft | 457 kts | 252° |
| 2026-05-06 22:56 | 51.28281 | -45.42847 | 40167 ft | 456 kts | 252° |
| 2026-05-06 22:57 | 51.25893 | -45.52238 | 40177 ft | 456 kts | 252° |
| 2026-05-06 22:57 | 51.23501 | -45.61603 | 40160 ft | 455 kts | 251° |
| 2026-05-06 22:58 | 51.21104 | -45.70947 | 40170 ft | 455 kts | 251° |
| 2026-05-06 22:58 | 51.18701 | -45.80276 | 40165 ft | 454 kts | 251° |
| 2026-05-06 22:59 | 51.16297 | -45.89571 | 40158 ft | 453 kts | 251° |
| 2026-05-06 22:59 | 51.13888 | -45.98849 | 40164 ft | 453 kts | 251° |
| 2026-05-06 23:00 | 51.11485 | -46.08063 | 40166 ft | 453 kts | 251° |
| 2026-05-06 23:00 | 51.09064 | -46.17312 | 40164 ft | 453 kts | 251° |
| 2026-05-06 23:01 | 51.06637 | -46.26544 | 40167 ft | 452 kts | 251° |
| 2026-05-06 23:01 | 51.04203 | -46.35765 | 40168 ft | 452 kts | 251° |
| 2026-05-06 23:02 | 51.01763 | -46.44974 | 40168 ft | 452 kts | 251° |
| 2026-05-06 23:02 | 50.99319 | -46.54158 | 40170 ft | 452 kts | 251° |
| 2026-05-06 23:03 | 50.96865 | -46.63347 | 40168 ft | 451 kts | 250° |
| 2026-05-06 23:03 | 50.94408 | -46.72507 | 40168 ft | 451 kts | 250° |
| 2026-05-06 23:04 | 50.91945 | -46.81653 | 40168 ft | 451 kts | 250° |
| 2026-05-06 23:04 | 50.89492 | -46.90726 | 40168 ft | 451 kts | 250° |
| 2026-05-06 23:05 | 50.87018 | -46.99846 | 40170 ft | 450 kts | 250° |
| 2026-05-06 23:05 | 50.84536 | -47.08953 | 40171 ft | 450 kts | 250° |
| 2026-05-06 23:06 | 50.82053 | -47.18033 | 40170 ft | 450 kts | 250° |
| 2026-05-06 23:06 | 50.79562 | -47.27103 | 40171 ft | 449 kts | 250° |
| 2026-05-06 23:07 | 50.77066 | -47.36157 | 40172 ft | 449 kts | 250° |
| 2026-05-06 23:07 | 50.74565 | -47.45197 | 40172 ft | 449 kts | 249° |
| 2026-05-06 23:08 | 50.72060 | -47.54214 | 40168 ft | 448 kts | 249° |
| 2026-05-06 23:08 | 50.69552 | -47.63207 | 40169 ft | 448 kts | 249° |
| 2026-05-06 23:09 | 50.67036 | -47.72195 | 40169 ft | 447 kts | 249° |
| 2026-05-06 23:09 | 50.64517 | -47.81157 | 40169 ft | 447 kts | 249° |
| 2026-05-06 23:10 | 50.61994 | -47.90102 | 40171 ft | 447 kts | 249° |
| 2026-05-06 23:10 | 50.59483 | -47.98971 | 40173 ft | 446 kts | 249° |
| 2026-05-06 23:11 | 50.56951 | -48.07883 | 40173 ft | 446 kts | 249° |
| 2026-05-06 23:11 | 50.54415 | -48.16772 | 40170 ft | 445 kts | 249° |
| 2026-05-06 23:12 | 50.51874 | -48.25646 | 40172 ft | 445 kts | 249° |
| 2026-05-06 23:12 | 50.49329 | -48.34500 | 40172 ft | 444 kts | 248° |
| 2026-05-06 23:13 | 50.46780 | -48.43337 | 40176 ft | 444 kts | 248° |
| 2026-05-06 23:13 | 50.44223 | -48.52169 | 40177 ft | 444 kts | 248° |
| 2026-05-06 23:14 | 50.41661 | -48.60984 | 40175 ft | 444 kts | 248° |
| 2026-05-06 23:14 | 50.39090 | -48.69797 | 40175 ft | 444 kts | 248° |
| 2026-05-06 23:15 | 50.36516 | -48.78589 | 40176 ft | 444 kts | 248° |
| 2026-05-06 23:15 | 50.33936 | -48.87372 | 40179 ft | 444 kts | 248° |
| 2026-05-06 23:16 | 50.31349 | -48.96144 | 40177 ft | 444 kts | 248° |
| 2026-05-06 23:16 | 50.28750 | -49.04924 | 40178 ft | 444 kts | 248° |
| 2026-05-06 23:17 | 50.26151 | -49.13676 | 40179 ft | 444 kts | 247° |
| 2026-05-06 23:17 | 50.23538 | -49.22437 | 40178 ft | 444 kts | 247° |
| 2026-05-06 23:18 | 50.20943 | -49.31112 | 40181 ft | 444 kts | 247° |
| 2026-05-06 23:18 | 50.18319 | -49.39850 | 40180 ft | 444 kts | 247° |
| 2026-05-06 23:19 | 50.15688 | -49.48581 | 40182 ft | 445 kts | 247° |
| 2026-05-06 23:19 | 50.13049 | -49.57308 | 40183 ft | 445 kts | 247° |
| 2026-05-06 23:20 | 50.10403 | -49.66024 | 40179 ft | 445 kts | 247° |
| 2026-05-06 23:20 | 50.07751 | -49.74732 | 40181 ft | 445 kts | 247° |
| 2026-05-06 23:21 | 50.05088 | -49.83444 | 40180 ft | 446 kts | 246° |
| 2026-05-06 23:21 | 50.02420 | -49.92141 | 40180 ft | 446 kts | 246° |
| 2026-05-06 23:22 | 50.00230 | -49.99394 | 40179 ft | 445 kts | 249° |
| 2026-05-06 23:22 | 49.97983 | -50.08351 | 40182 ft | 445 kts | 251° |
| 2026-05-06 23:23 | 49.95817 | -50.17355 | 40181 ft | 445 kts | 251° |
| 2026-05-06 23:23 | 49.93656 | -50.26370 | 40182 ft | 445 kts | 251° |
| 2026-05-06 23:24 | 49.91482 | -50.35372 | 40182 ft | 446 kts | 251° |
| 2026-05-06 23:24 | 49.89292 | -50.44378 | 40182 ft | 446 kts | 251° |
| 2026-05-06 23:25 | 49.87094 | -50.53375 | 40180 ft | 446 kts | 251° |
| 2026-05-06 23:25 | 49.84886 | -50.62377 | 40180 ft | 447 kts | 251° |
| 2026-05-06 23:26 | 49.82671 | -50.71370 | 40181 ft | 447 kts | 251° |
| 2026-05-06 23:26 | 49.80445 | -50.80371 | 40181 ft | 448 kts | 251° |
| 2026-05-06 23:27 | 49.78212 | -50.89364 | 40179 ft | 448 kts | 250° |
| 2026-05-06 23:27 | 49.77090 | -50.93872 | 40307 ft | 450 kts | 250° |
| 2026-05-06 23:27 | 49.75961 | -50.98399 | 40177 ft | 452 kts | 250° |
| 2026-05-06 23:28 | 49.73685 | -51.07493 | 40177 ft | 454 kts | 250° |
| 2026-05-06 23:28 | 49.71399 | -51.16585 | 40172 ft | 454 kts | 250° |
| 2026-05-06 23:29 | 49.69107 | -51.25666 | 40176 ft | 454 kts | 250° |
| 2026-05-06 23:29 | 49.66823 | -51.34683 | 40172 ft | 454 kts | 250° |
| 2026-05-06 23:30 | 49.64517 | -51.43748 | 40178 ft | 454 kts | 250° |
| 2026-05-06 23:30 | 49.62204 | -51.52807 | 40170 ft | 454 kts | 250° |
| 2026-05-06 23:31 | 49.59884 | -51.61851 | 40044 ft | 452 kts | 250° |
| 2026-05-06 23:31 | 49.58725 | -51.66360 | 40166 ft | 452 kts | 250° |
| 2026-05-06 23:31 | 49.57567 | -51.70852 | 40176 ft | 450 kts | 250° |
| 2026-05-06 23:32 | 49.55253 | -51.79804 | 40179 ft | 450 kts | 250° |
| 2026-05-06 23:32 | 49.52933 | -51.88747 | 40176 ft | 450 kts | 250° |
| 2026-05-06 23:33 | 49.50605 | -51.97684 | 40174 ft | 450 kts | 250° |
| 2026-05-06 23:33 | 49.48195 | -52.06583 | 40175 ft | 450 kts | 248° |
| 2026-05-06 23:34 | 49.45569 | -52.15341 | 40168 ft | 451 kts | 247° |
| 2026-05-06 23:34 | 49.42944 | -52.24016 | 40173 ft | 450 kts | 247° |
| 2026-05-06 23:35 | 49.40328 | -52.32762 | 40171 ft | 450 kts | 248° |
| 2026-05-06 23:35 | 49.37728 | -52.41497 | 40167 ft | 449 kts | 248° |
| 2026-05-06 23:36 | 49.35127 | -52.50218 | 40170 ft | 449 kts | 248° |
| 2026-05-06 23:36 | 49.32521 | -52.58918 | 40168 ft | 449 kts | 248° |
| 2026-05-06 23:37 | 49.29910 | -52.67598 | 40170 ft | 448 kts | 248° |
| 2026-05-06 23:37 | 49.27292 | -52.76272 | 40172 ft | 448 kts | 248° |
| 2026-05-06 23:38 | 49.24670 | -52.84926 | 40169 ft | 448 kts | 248° |
| 2026-05-06 23:38 | 49.22045 | -52.93562 | 40168 ft | 448 kts | 248° |
| 2026-05-06 23:39 | 49.19411 | -53.02194 | 40168 ft | 447 kts | 248° |
| 2026-05-06 23:39 | 49.16774 | -53.10808 | 40167 ft | 447 kts | 248° |
| 2026-05-06 23:40 | 49.14149 | -53.19354 | 40164 ft | 447 kts | 248° |
| 2026-05-06 23:40 | 49.11505 | -53.27932 | 40158 ft | 447 kts | 247° |
| 2026-05-06 23:41 | 49.08853 | -53.36506 | 40153 ft | 446 kts | 247° |
| 2026-05-06 23:41 | 49.06198 | -53.45058 | 40158 ft | 446 kts | 247° |
| 2026-05-06 23:42 | 49.03540 | -53.53594 | 40156 ft | 446 kts | 247° |
| 2026-05-06 23:42 | 49.00873 | -53.62126 | 40151 ft | 446 kts | 247° |
| 2026-05-06 23:43 | 48.98206 | -53.70629 | 40156 ft | 445 kts | 247° |
| 2026-05-06 23:43 | 48.95532 | -53.79127 | 40149 ft | 445 kts | 247° |
| 2026-05-06 23:44 | 48.92851 | -53.87618 | 40160 ft | 445 kts | 247° |
| 2026-05-06 23:44 | 48.90167 | -53.96089 | 40146 ft | 444 kts | 247° |
| 2026-05-06 23:45 | 48.87477 | -54.04553 | 40160 ft | 444 kts | 246° |
| 2026-05-06 23:45 | 48.84801 | -54.12938 | 40142 ft | 444 kts | 246° |
| 2026-05-06 23:46 | 48.82105 | -54.21362 | 40153 ft | 444 kts | 246° |
| 2026-05-06 23:46 | 48.79406 | -54.29766 | 40149 ft | 443 kts | 246° |
| 2026-05-06 23:47 | 48.76702 | -54.38159 | 40147 ft | 443 kts | 246° |
| 2026-05-06 23:47 | 48.73992 | -54.46543 | 40148 ft | 442 kts | 246° |
| 2026-05-06 23:48 | 48.71281 | -54.54903 | 40148 ft | 442 kts | 246° |
| 2026-05-06 23:48 | 48.68564 | -54.63251 | 40153 ft | 442 kts | 246° |
| 2026-05-06 23:49 | 48.65844 | -54.71584 | 40152 ft | 442 kts | 246° |
| 2026-05-06 23:49 | 48.63116 | -54.79911 | 40154 ft | 442 kts | 246° |
| 2026-05-06 23:50 | 48.60383 | -54.88227 | 40154 ft | 442 kts | 246° |
| 2026-05-06 23:50 | 48.56267 | -55.00703 | 40153 ft | 443 kts | 246° |
| 2026-05-06 23:51 | 48.53507 | -55.09031 | 40150 ft | 444 kts | 246° |
| 2026-05-06 23:51 | 48.50743 | -55.17348 | 40151 ft | 444 kts | 246° |
| 2026-05-06 23:52 | 48.47966 | -55.25674 | 40153 ft | 444 kts | 246° |
| 2026-05-06 23:52 | 48.45184 | -55.33990 | 40152 ft | 445 kts | 245° |
| 2026-05-06 23:53 | 48.42391 | -55.42309 | 40151 ft | 445 kts | 245° |
| 2026-05-06 23:53 | 48.39595 | -55.50612 | 40148 ft | 445 kts | 245° |
| 2026-05-06 23:54 | 48.36792 | -55.58909 | 40147 ft | 445 kts | 245° |
| 2026-05-06 23:54 | 48.33983 | -55.67196 | 40143 ft | 445 kts | 245° |
| 2026-05-06 23:55 | 48.31169 | -55.75471 | 40141 ft | 444 kts | 245° |
| 2026-05-06 23:55 | 48.28352 | -55.83727 | 40137 ft | 444 kts | 245° |
| 2026-05-06 23:56 | 48.25532 | -55.91966 | 40139 ft | 443 kts | 245° |
| 2026-05-06 23:56 | 48.22710 | -56.00186 | 40134 ft | 443 kts | 245° |
| 2026-05-06 23:57 | 48.19887 | -56.08383 | 40131 ft | 442 kts | 245° |
| 2026-05-06 23:57 | 48.17060 | -56.16566 | 40130 ft | 442 kts | 245° |
| 2026-05-06 23:58 | 48.14227 | -56.24740 | 40129 ft | 441 kts | 245° |
| 2026-05-06 23:58 | 48.11393 | -56.32892 | 40131 ft | 441 kts | 245° |
| 2026-05-06 23:59 | 48.08555 | -56.41028 | 40133 ft | 441 kts | 245° |
| 2026-05-06 23:59 | 48.05714 | -56.49147 | 40140 ft | 440 kts | 244° |
| 2026-05-07 00:00 | 48.02871 | -56.57248 | 40140 ft | 440 kts | 244° |
| 2026-05-07 00:00 | 48.00503 | -56.63977 | 40153 ft | 440 kts | 244° |
| 2026-05-07 00:01 | 47.97168 | -56.73422 | 40165 ft | 440 kts | 244° |
| 2026-05-07 00:01 | 47.94331 | -56.81429 | 40175 ft | 440 kts | 244° |
| 2026-05-07 00:02 | 47.91468 | -56.89489 | 40182 ft | 440 kts | 244° |
| 2026-05-07 00:02 | 47.88601 | -56.97531 | 40191 ft | 439 kts | 244° |
| 2026-05-07 00:03 | 47.85731 | -57.05559 | 40199 ft | 439 kts | 244° |
| 2026-05-07 00:03 | 47.82860 | -57.13564 | 40207 ft | 438 kts | 244° |
| 2026-05-07 00:04 | 47.79984 | -57.21560 | 40215 ft | 438 kts | 244° |
| 2026-05-07 00:04 | 47.77105 | -57.29539 | 40209 ft | 438 kts | 244° |
| 2026-05-07 00:05 | 47.74224 | -57.37500 | 40213 ft | 437 kts | 244° |
| 2026-05-07 00:05 | 47.71336 | -57.45457 | 40210 ft | 437 kts | 244° |
| 2026-05-07 00:06 | 47.68444 | -57.53399 | 40210 ft | 437 kts | 244° |
| 2026-05-07 00:06 | 47.65550 | -57.61324 | 40210 ft | 437 kts | 244° |
| 2026-05-07 00:07 | 47.62651 | -57.69239 | 40207 ft | 436 kts | 244° |
| 2026-05-07 00:07 | 47.59751 | -57.77133 | 40207 ft | 436 kts | 244° |
| 2026-05-07 00:08 | 47.57338 | -57.83685 | 40202 ft | 436 kts | 244° |
| 2026-05-07 00:08 | 47.54413 | -57.91604 | 40200 ft | 435 kts | 244° |
| 2026-05-07 00:09 | 47.51506 | -57.99452 | 40196 ft | 435 kts | 243° |
| 2026-05-07 00:09 | 47.48618 | -58.07223 | 40191 ft | 434 kts | 243° |
| 2026-05-07 00:10 | 47.45709 | -58.15031 | 40184 ft | 433 kts | 243° |
| 2026-05-07 00:10 | 47.42797 | -58.22822 | 40181 ft | 432 kts | 243° |
| 2026-05-07 00:11 | 47.39888 | -58.30583 | 40166 ft | 431 kts | 243° |
| 2026-05-07 00:11 | 47.36981 | -58.38318 | 40169 ft | 430 kts | 243° |
| 2026-05-07 00:12 | 47.34071 | -58.46037 | 40152 ft | 429 kts | 243° |
| 2026-05-07 00:12 | 47.31167 | -58.53717 | 40154 ft | 428 kts | 243° |
| 2026-05-07 00:13 | 47.28281 | -58.61328 | 40141 ft | 428 kts | 243° |
| 2026-05-07 00:13 | 47.25376 | -58.68969 | 40143 ft | 427 kts | 243° |
| 2026-05-07 00:14 | 47.22466 | -58.76602 | 40130 ft | 427 kts | 243° |
| 2026-05-07 00:14 | 47.19555 | -58.84216 | 40135 ft | 426 kts | 243° |
| 2026-05-07 00:15 | 47.16643 | -58.91810 | 40122 ft | 426 kts | 243° |
| 2026-05-07 00:15 | 47.13727 | -58.99393 | 40117 ft | 426 kts | 243° |
| 2026-05-07 00:16 | 47.10829 | -59.06908 | 40111 ft | 425 kts | 243° |
| 2026-05-07 00:16 | 47.07911 | -59.14455 | 40107 ft | 425 kts | 242° |
| 2026-05-07 00:17 | 47.04982 | -59.22008 | 40102 ft | 425 kts | 242° |
| 2026-05-07 00:17 | 47.02056 | -59.29534 | 40103 ft | 424 kts | 242° |
| 2026-05-07 00:18 | 46.99129 | -59.37040 | 40096 ft | 424 kts | 242° |
| 2026-05-07 00:18 | 46.96197 | -59.44537 | 40090 ft | 424 kts | 242° |
| 2026-05-07 00:19 | 46.93264 | -59.52017 | 40089 ft | 424 kts | 242° |
| 2026-05-07 00:19 | 46.90326 | -59.59489 | 40084 ft | 423 kts | 242° |
| 2026-05-07 00:20 | 46.87388 | -59.66938 | 40078 ft | 423 kts | 242° |
| 2026-05-07 00:20 | 46.84448 | -59.74376 | 40074 ft | 422 kts | 242° |
| 2026-05-07 00:21 | 46.81525 | -59.81750 | 40074 ft | 421 kts | 242° |
| 2026-05-07 00:21 | 46.78567 | -59.89192 | 40068 ft | 421 kts | 242° |
| 2026-05-07 00:22 | 46.75652 | -59.96505 | 40067 ft | 420 kts | 241° |
| 2026-05-07 00:22 | 46.72714 | -60.03855 | 40065 ft | 419 kts | 241° |
| 2026-05-07 00:23 | 46.69776 | -60.11186 | 40062 ft | 419 kts | 241° |
| 2026-05-07 00:23 | 46.66836 | -60.18504 | 40054 ft | 418 kts | 241° |
| 2026-05-07 00:24 | 46.63889 | -60.25818 | 40054 ft | 418 kts | 241° |
| 2026-05-07 00:24 | 46.60943 | -60.33111 | 40052 ft | 418 kts | 241° |
| 2026-05-07 00:25 | 46.57993 | -60.40396 | 40051 ft | 418 kts | 241° |
| 2026-05-07 00:25 | 46.55038 | -60.47669 | 40056 ft | 418 kts | 241° |
| 2026-05-07 00:26 | 46.52081 | -60.54931 | 40056 ft | 418 kts | 240° |
| 2026-05-07 00:26 | 46.49121 | -60.62182 | 40061 ft | 418 kts | 240° |
| 2026-05-07 00:27 | 46.46172 | -60.69387 | 40063 ft | 418 kts | 240° |
| 2026-05-07 00:27 | 46.43203 | -60.76620 | 40064 ft | 418 kts | 240° |
| 2026-05-07 00:28 | 46.40230 | -60.83846 | 40063 ft | 417 kts | 240° |
| 2026-05-07 00:28 | 46.37251 | -60.91066 | 40066 ft | 418 kts | 240° |
| 2026-05-07 00:29 | 46.34265 | -60.98286 | 40065 ft | 418 kts | 240° |
| 2026-05-07 00:30 | 46.28280 | -61.12695 | 40067 ft | 418 kts | 240° |
| 2026-05-07 00:30 | 46.25282 | -61.19886 | 40066 ft | 418 kts | 240° |
| 2026-05-07 00:31 | 46.22281 | -61.27067 | 40070 ft | 417 kts | 239° |
| 2026-05-07 00:31 | 46.19280 | -61.34228 | 40061 ft | 416 kts | 239° |
| 2026-05-07 00:32 | 46.16280 | -61.41369 | 40061 ft | 416 kts | 239° |
| 2026-05-07 00:32 | 46.13279 | -61.48491 | 40061 ft | 415 kts | 239° |
| 2026-05-07 00:33 | 46.10279 | -61.55596 | 40060 ft | 415 kts | 239° |
| 2026-05-07 00:33 | 46.07275 | -61.62693 | 40059 ft | 415 kts | 239° |
| 2026-05-07 00:34 | 46.04267 | -61.69780 | 40058 ft | 415 kts | 239° |
| 2026-05-07 00:34 | 46.01254 | -61.76860 | 40060 ft | 415 kts | 239° |
| 2026-05-07 00:35 | 45.98239 | -61.83928 | 40058 ft | 415 kts | 239° |
| 2026-05-07 00:35 | 45.95218 | -61.90991 | 40053 ft | 415 kts | 239° |
| 2026-05-07 00:36 | 45.92192 | -61.98049 | 40048 ft | 415 kts | 239° |
| 2026-05-07 00:36 | 45.89163 | -62.05094 | 40043 ft | 415 kts | 238° |
| 2026-05-07 00:37 | 45.86130 | -62.12132 | 40045 ft | 415 kts | 238° |
| 2026-05-07 00:37 | 45.83094 | -62.19160 | 40038 ft | 415 kts | 238° |
| 2026-05-07 00:38 | 45.80052 | -62.26185 | 40038 ft | 415 kts | 238° |
| 2026-05-07 00:38 | 45.77028 | -62.33149 | 40033 ft | 414 kts | 238° |
| 2026-05-07 00:39 | 45.73979 | -62.40153 | 40033 ft | 414 kts | 238° |
| 2026-05-07 00:39 | 45.70928 | -62.47145 | 40034 ft | 414 kts | 238° |
| 2026-05-07 00:40 | 45.67874 | -62.54125 | 40035 ft | 414 kts | 238° |
| 2026-05-07 00:40 | 45.64815 | -62.61101 | 40033 ft | 414 kts | 238° |
| 2026-05-07 00:41 | 45.61755 | -62.68060 | 40035 ft | 414 kts | 238° |
| 2026-05-07 00:41 | 45.58687 | -62.75020 | 40035 ft | 414 kts | 238° |
| 2026-05-07 00:42 | 45.55615 | -62.81972 | 40040 ft | 414 kts | 238° |
| 2026-05-07 00:42 | 45.52538 | -62.88921 | 40044 ft | 414 kts | 238° |
| 2026-05-07 00:43 | 45.49455 | -62.95863 | 40043 ft | 415 kts | 238° |
| 2026-05-07 00:43 | 45.46366 | -63.02804 | 40041 ft | 415 kts | 237° |
| 2026-05-07 00:44 | 45.43275 | -63.09732 | 40042 ft | 415 kts | 237° |
| 2026-05-07 00:44 | 45.40174 | -63.16663 | 40044 ft | 415 kts | 237° |
| 2026-05-07 00:45 | 45.37071 | -63.23584 | 40043 ft | 415 kts | 237° |
| 2026-05-07 00:45 | 45.33965 | -63.30494 | 40044 ft | 415 kts | 237° |
| 2026-05-07 00:46 | 45.30854 | -63.37399 | 40044 ft | 415 kts | 237° |
| 2026-05-07 00:46 | 45.27754 | -63.44263 | 40042 ft | 414 kts | 237° |
| 2026-05-07 00:47 | 45.25240 | -63.49817 | 40045 ft | 414 kts | 237° |
| 2026-05-07 00:47 | 45.22117 | -63.56700 | 40045 ft | 414 kts | 237° |
| 2026-05-07 00:48 | 45.18998 | -63.63559 | 40039 ft | 414 kts | 237° |
| 2026-05-07 00:48 | 45.15877 | -63.70405 | 40042 ft | 414 kts | 237° |
| 2026-05-07 00:49 | 45.12750 | -63.77250 | 40038 ft | 414 kts | 237° |
| 2026-05-07 00:49 | 45.09618 | -63.84087 | 40037 ft | 414 kts | 237° |
| 2026-05-07 00:50 | 45.06486 | -63.90910 | 40031 ft | 414 kts | 237° |
| 2026-05-07 00:50 | 45.03344 | -63.97737 | 40029 ft | 414 kts | 237° |
| 2026-05-07 00:51 | 45.00194 | -64.04564 | 40027 ft | 415 kts | 237° |
| 2026-05-07 00:51 | 44.97056 | -64.11349 | 40023 ft | 415 kts | 237° |
| 2026-05-07 00:52 | 44.93895 | -64.18168 | 40021 ft | 415 kts | 237° |
| 2026-05-07 00:52 | 44.90724 | -64.24990 | 40014 ft | 415 kts | 237° |
| 2026-05-07 00:53 | 44.87545 | -64.31814 | 40007 ft | 415 kts | 237° |
| 2026-05-07 00:53 | 44.84371 | -64.38614 | 40003 ft | 415 kts | 237° |
| 2026-05-07 00:54 | 44.81190 | -64.45410 | 40001 ft | 415 kts | 237° |
| 2026-05-07 00:54 | 44.78545 | -64.51049 | 39999 ft | 415 kts | 237° |
| 2026-05-07 00:55 | 44.75361 | -64.57823 | 40000 ft | 415 kts | 237° |
| 2026-05-07 00:55 | 44.72174 | -64.64588 | 39997 ft | 415 kts | 237° |
| 2026-05-07 00:56 | 44.68986 | -64.71340 | 39999 ft | 414 kts | 237° |
| 2026-05-07 00:56 | 44.65795 | -64.78080 | 39997 ft | 414 kts | 237° |
| 2026-05-07 00:57 | 44.62599 | -64.84817 | 39998 ft | 414 kts | 237° |
| 2026-05-07 00:57 | 44.59403 | -64.91538 | 39995 ft | 414 kts | 237° |
| 2026-05-07 00:58 | 44.56203 | -64.98249 | 40000 ft | 414 kts | 237° |
| 2026-05-07 00:58 | 44.53001 | -65.04952 | 40001 ft | 414 kts | 237° |
| 2026-05-07 00:59 | 44.48184 | -65.15005 | 40004 ft | 414 kts | 237° |
| 2026-05-07 01:00 | 44.44966 | -65.21702 | 40004 ft | 415 kts | 237° |
| 2026-05-07 01:00 | 44.41763 | -65.28352 | 40002 ft | 415 kts | 237° |
| 2026-05-07 01:01 | 44.38536 | -65.35035 | 40008 ft | 415 kts | 237° |
| 2026-05-07 01:01 | 44.35303 | -65.41717 | 40012 ft | 415 kts | 237° |
| 2026-05-07 01:02 | 44.32062 | -65.48399 | 40008 ft | 415 kts | 237° |
| 2026-05-07 01:02 | 44.28817 | -65.55073 | 40006 ft | 415 kts | 237° |
| 2026-05-07 01:03 | 44.25571 | -65.61736 | 40004 ft | 415 kts | 237° |
| 2026-05-07 01:03 | 44.22318 | -65.68396 | 40007 ft | 415 kts | 237° |
| 2026-05-07 01:04 | 44.19064 | -65.75044 | 40008 ft | 415 kts | 237° |
| 2026-05-07 01:04 | 44.15806 | -65.81684 | 40006 ft | 415 kts | 237° |
| 2026-05-07 01:05 | 44.12546 | -65.88315 | 40007 ft | 415 kts | 237° |
| 2026-05-07 01:05 | 44.09280 | -65.94939 | 40002 ft | 415 kts | 237° |
| 2026-05-07 01:06 | 44.06015 | -66.01549 | 39998 ft | 415 kts | 237° |
| 2026-05-07 01:06 | 44.02745 | -66.08154 | 39998 ft | 414 kts | 237° |
| 2026-05-07 01:07 | 43.99498 | -66.14698 | 39996 ft | 414 kts | 238° |
| 2026-05-07 01:07 | 43.96207 | -66.21314 | 39994 ft | 414 kts | 238° |
| 2026-05-07 01:08 | 43.93035 | -66.27678 | 39994 ft | 413 kts | 238° |
| 2026-05-07 01:08 | 43.89765 | -66.34223 | 39991 ft | 412 kts | 238° |
| 2026-05-07 01:09 | 43.86501 | -66.40742 | 39981 ft | 411 kts | 238° |
| 2026-05-07 01:09 | 43.83236 | -66.47247 | 39975 ft | 411 kts | 238° |
| 2026-05-07 01:10 | 43.79978 | -66.53727 | 39963 ft | 410 kts | 238° |
| 2026-05-07 01:10 | 43.76721 | -66.60188 | 39951 ft | 409 kts | 238° |
| 2026-05-07 01:11 | 43.73465 | -66.66634 | 39947 ft | 408 kts | 238° |
| 2026-05-07 01:11 | 43.70213 | -66.73057 | 39941 ft | 408 kts | 238° |
| 2026-05-07 01:12 | 43.66958 | -66.79474 | 39937 ft | 407 kts | 238° |
| 2026-05-07 01:12 | 43.63707 | -66.85869 | 39931 ft | 407 kts | 238° |
| 2026-05-07 01:13 | 43.60451 | -66.92258 | 39930 ft | 407 kts | 238° |
| 2026-05-07 01:13 | 43.57230 | -66.98676 | 39924 ft | 406 kts | 242° |
| 2026-05-07 01:14 | 43.54928 | -67.05722 | 39920 ft | 403 kts | 250° |
| 2026-05-07 01:14 | 43.52895 | -67.12929 | 39917 ft | 403 kts | 250° |
| 2026-05-07 01:15 | 43.50884 | -67.20090 | 39914 ft | 404 kts | 250° |
| 2026-05-07 01:15 | 43.48858 | -67.27298 | 39911 ft | 403 kts | 250° |
| 2026-05-07 01:16 | 43.46826 | -67.34504 | 39908 ft | 403 kts | 250° |
| 2026-05-07 01:16 | 43.44794 | -67.41694 | 39905 ft | 403 kts | 250° |
| 2026-05-07 01:17 | 43.42754 | -67.48888 | 39899 ft | 403 kts | 250° |
| 2026-05-07 01:17 | 43.40712 | -67.56070 | 39894 ft | 403 kts | 250° |
| 2026-05-07 01:18 | 43.38667 | -67.63243 | 39893 ft | 403 kts | 250° |
| 2026-05-07 01:18 | 43.36617 | -67.70414 | 39890 ft | 403 kts | 250° |
| 2026-05-07 01:19 | 43.34561 | -67.77581 | 39884 ft | 403 kts | 250° |
| 2026-05-07 01:19 | 43.32502 | -67.84744 | 39882 ft | 403 kts | 250° |
| 2026-05-07 01:20 | 43.30436 | -67.91904 | 39877 ft | 403 kts | 250° |
| 2026-05-07 01:20 | 43.28368 | -67.99057 | 39873 ft | 403 kts | 250° |
| 2026-05-07 01:21 | 43.26295 | -68.06203 | 39870 ft | 403 kts | 250° |
| 2026-05-07 01:21 | 43.24216 | -68.13351 | 39862 ft | 403 kts | 250° |
| 2026-05-07 01:22 | 43.22136 | -68.20483 | 39859 ft | 403 kts | 250° |
| 2026-05-07 01:22 | 43.20066 | -68.27558 | 39858 ft | 402 kts | 250° |
| 2026-05-07 01:23 | 43.17983 | -68.34661 | 39855 ft | 402 kts | 250° |
| 2026-05-07 01:23 | 43.15893 | -68.41767 | 39852 ft | 401 kts | 250° |
| 2026-05-07 01:24 | 43.13802 | -68.48856 | 39851 ft | 401 kts | 250° |
| 2026-05-07 01:24 | 43.11710 | -68.55930 | 39848 ft | 401 kts | 250° |
| 2026-05-07 01:25 | 43.09613 | -68.62998 | 39842 ft | 401 kts | 250° |
| 2026-05-07 01:25 | 43.07520 | -68.70035 | 39536 ft | 396 kts | 250° |
| 2026-05-07 01:25 | 43.06477 | -68.73534 | 38777 ft | 400 kts | 250° |
| 2026-05-07 01:26 | 43.05423 | -68.77068 | 37993 ft | 402 kts | 250° |
| 2026-05-07 01:26 | 43.04363 | -68.80620 | 37141 ft | 404 kts | 250° |
| 2026-05-07 01:26 | 43.03294 | -68.84194 | 36308 ft | 406 kts | 249° |
| 2026-05-07 01:26 | 43.02225 | -68.87764 | 35570 ft | 406 kts | 249° |
| 2026-05-07 01:27 | 43.01153 | -68.91334 | 34944 ft | 404 kts | 249° |
| 2026-05-07 01:27 | 43.00092 | -68.94862 | 34422 ft | 400 kts | 249° |
| 2026-05-07 01:27 | 42.99041 | -68.98355 | 33898 ft | 396 kts | 249° |
| 2026-05-07 01:27 | 42.97997 | -69.01818 | 33316 ft | 392 kts | 249° |
| 2026-05-07 01:28 | 42.96963 | -69.05242 | 32784 ft | 387 kts | 249° |
| 2026-05-07 01:28 | 42.95943 | -69.08619 | 32269 ft | 383 kts | 249° |
| 2026-05-07 01:28 | 42.94931 | -69.11962 | 31761 ft | 379 kts | 249° |
| 2026-05-07 01:28 | 42.93931 | -69.15265 | 31244 ft | 375 kts | 249° |
| 2026-05-07 01:29 | 42.92939 | -69.18535 | 30739 ft | 371 kts | 249° |
| 2026-05-07 01:29 | 42.91956 | -69.21772 | 30234 ft | 368 kts | 249° |
| 2026-05-07 01:29 | 42.90980 | -69.24982 | 29711 ft | 365 kts | 249° |
| 2026-05-07 01:29 | 42.90014 | -69.28158 | 29174 ft | 361 kts | 249° |
| 2026-05-07 01:30 | 42.89059 | -69.31295 | 28662 ft | 356 kts | 249° |
| 2026-05-07 01:30 | 42.88126 | -69.34356 | 28191 ft | 352 kts | 248° |
| 2026-05-07 01:30 | 42.87177 | -69.37462 | 27691 ft | 348 kts | 248° |
| 2026-05-07 01:30 | 42.86249 | -69.40496 | 27207 ft | 345 kts | 248° |
| 2026-05-07 01:31 | 42.85328 | -69.43506 | 26710 ft | 343 kts | 248° |
| 2026-05-07 01:31 | 42.84424 | -69.46456 | 26212 ft | 341 kts | 248° |
| 2026-05-07 01:31 | 42.83514 | -69.49421 | 25733 ft | 339 kts | 248° |
| 2026-05-07 01:31 | 42.82606 | -69.52377 | 25238 ft | 338 kts | 247° |
| 2026-05-07 01:32 | 42.81700 | -69.55323 | 24737 ft | 337 kts | 247° |
| 2026-05-07 01:32 | 42.80795 | -69.58261 | 24233 ft | 336 kts | 247° |
| 2026-05-07 01:32 | 42.79888 | -69.61205 | 23719 ft | 336 kts | 246° |
| 2026-05-07 01:32 | 42.78983 | -69.64135 | 23179 ft | 336 kts | 246° |
| 2026-05-07 01:33 | 42.78077 | -69.67067 | 22630 ft | 335 kts | 246° |
| 2026-05-07 01:33 | 42.77174 | -69.69983 | 22101 ft | 333 kts | 246° |
| 2026-05-07 01:33 | 42.76279 | -69.72873 | 21606 ft | 331 kts | 246° |
| 2026-05-07 01:33 | 42.75388 | -69.75748 | 21091 ft | 328 kts | 246° |
| 2026-05-07 01:34 | 42.74502 | -69.78601 | 20582 ft | 326 kts | 246° |
| 2026-05-07 01:34 | 42.73626 | -69.81424 | 20081 ft | 323 kts | 246° |
| 2026-05-07 01:34 | 42.72753 | -69.84231 | 19578 ft | 321 kts | 246° |
| 2026-05-07 01:34 | 42.71888 | -69.87009 | 19081 ft | 318 kts | 246° |
| 2026-05-07 01:35 | 42.71025 | -69.89777 | 18582 ft | 316 kts | 246° |
| 2026-05-07 01:35 | 42.70170 | -69.92518 | 18090 ft | 314 kts | 245° |
| 2026-05-07 01:35 | 42.69320 | -69.95241 | 17542 ft | 312 kts | 245° |
| 2026-05-07 01:35 | 42.68476 | -69.97936 | 17049 ft | 308 kts | 245° |
| 2026-05-07 01:36 | 42.67645 | -70.00588 | 16686 ft | 302 kts | 245° |
| 2026-05-07 01:36 | 42.66828 | -70.03195 | 16251 ft | 299 kts | 246° |
| 2026-05-07 01:36 | 42.66015 | -70.05788 | 15779 ft | 298 kts | 246° |
| 2026-05-07 01:36 | 42.65202 | -70.08377 | 15325 ft | 297 kts | 246° |
| 2026-05-07 01:37 | 42.64407 | -70.10853 | 15189 ft | 272 kts | 244° |
| 2026-05-07 01:37 | 42.63646 | -70.13053 | 15095 ft | 244 kts | 244° |
| 2026-05-07 01:37 | 42.62942 | -70.15065 | 15002 ft | 236 kts | 244° |
| 2026-05-07 01:37 | 42.62228 | -70.17113 | 14869 ft | 241 kts | 244° |
| 2026-05-07 01:38 | 42.61514 | -70.19173 | 14628 ft | 241 kts | 244° |
| 2026-05-07 01:38 | 42.60806 | -70.21224 | 14294 ft | 240 kts | 244° |
| 2026-05-07 01:38 | 42.60236 | -70.23345 | 13956 ft | 240 kts | 255° |
| 2026-05-07 01:38 | 42.60005 | -70.25664 | 13696 ft | 257 kts | 262° |
| 2026-05-07 01:39 | 42.59891 | -70.28123 | 13531 ft | 263 kts | 263° |
| 2026-05-07 01:39 | 42.59790 | -70.30595 | 13024 ft | 263 kts | 263° |
| 2026-05-07 01:39 | 42.59684 | -70.33086 | 12502 ft | 265 kts | 264° |
| 2026-05-07 01:39 | 42.59574 | -70.35578 | 12088 ft | 263 kts | 264° |
| 2026-05-07 01:40 | 42.59463 | -70.38043 | 11722 ft | 260 kts | 264° |
| 2026-05-07 01:40 | 42.59352 | -70.40458 | 11362 ft | 259 kts | 264° |
| 2026-05-07 01:40 | 42.59239 | -70.42890 | 10995 ft | 259 kts | 264° |
| 2026-05-07 01:40 | 42.59125 | -70.45327 | 10625 ft | 258 kts | 264° |
| 2026-05-07 01:41 | 42.59010 | -70.47758 | 10268 ft | 258 kts | 264° |
| 2026-05-07 01:41 | 42.58895 | -70.50180 | 9899 ft | 257 kts | 264° |
| 2026-05-07 01:41 | 42.58780 | -70.52601 | 9525 ft | 257 kts | 264° |
| 2026-05-07 01:41 | 42.58663 | -70.55011 | 9155 ft | 256 kts | 264° |
| 2026-05-07 01:42 | 42.58397 | -70.57387 | 8804 ft | 254 kts | 255° |
| 2026-05-07 01:42 | 42.57922 | -70.59690 | 8463 ft | 253 kts | 253° |
| 2026-05-07 01:42 | 42.57417 | -70.61973 | 8113 ft | 252 kts | 253° |
| 2026-05-07 01:42 | 42.57083 | -70.63480 | 7884 ft | 251 kts | 253° |
| 2026-05-07 01:43 | 42.56583 | -70.65750 | 7537 ft | 251 kts | 253° |
| 2026-05-07 01:43 | 42.56198 | -70.68044 | 7195 ft | 251 kts | 263° |
| 2026-05-07 01:43 | 42.56366 | -70.70401 | 6885 ft | 254 kts | 284° |
| 2026-05-07 01:43 | 42.57211 | -70.72526 | 6647 ft | 260 kts | 301° |
| 2026-05-07 01:44 | 42.58326 | -70.74459 | 6396 ft | 260 kts | 304° |
| 2026-05-07 01:44 | 42.59510 | -70.76271 | 6240 ft | 254 kts | 313° |
| 2026-05-07 01:44 | 42.61075 | -70.77367 | 6047 ft | 259 kts | 343° |
| 2026-05-07 01:44 | 42.62852 | -70.77173 | 5985 ft | 256 kts | 12° |
| 2026-05-07 01:45 | 42.64523 | -70.76366 | 5980 ft | 256 kts | 16° |
| 2026-05-07 01:45 | 42.66194 | -70.75498 | 5972 ft | 257 kts | 15° |
| 2026-05-07 01:45 | 42.67873 | -70.74641 | 5971 ft | 256 kts | 15° |
| 2026-05-07 01:45 | 42.69516 | -70.73839 | 5967 ft | 247 kts | 10° |
| 2026-05-07 01:46 | 42.71142 | -70.73774 | 5971 ft | 231 kts | 339° |
| 2026-05-07 01:46 | 42.72485 | -70.74776 | 5973 ft | 216 kts | 308° |
| 2026-05-07 01:46 | 42.73188 | -70.76488 | 5965 ft | 204 kts | 282° |
| 2026-05-07 01:46 | 42.73478 | -70.78325 | 5522 ft | 197 kts | 277° |
| 2026-05-07 01:47 | 42.73482 | -70.80179 | 4840 ft | 198 kts | 256° |
| 2026-05-07 01:47 | 42.72992 | -70.81929 | 4269 ft | 199 kts | 247° |
| 2026-05-07 01:47 | 42.72206 | -70.83509 | 3999 ft | 206 kts | 231° |
| 2026-05-07 01:47 | 42.71083 | -70.84848 | 3933 ft | 217 kts | 216° |
| 2026-05-07 01:48 | 42.69733 | -70.85673 | 3967 ft | 212 kts | 204° |
| 2026-05-07 01:48 | 42.68335 | -70.86274 | 3972 ft | 209 kts | 204° |
| 2026-05-07 01:48 | 42.67011 | -70.87060 | 3977 ft | 207 kts | 209° |
| 2026-05-07 01:48 | 42.65637 | -70.87720 | 3977 ft | 211 kts | 200° |
| 2026-05-07 01:49 | 42.64190 | -70.88134 | 3976 ft | 213 kts | 196° |
| 2026-05-07 01:49 | 42.62719 | -70.88451 | 3977 ft | 214 kts | 195° |
| 2026-05-07 01:49 | 42.61252 | -70.88793 | 3976 ft | 213 kts | 197° |
| 2026-05-07 01:49 | 42.59806 | -70.89231 | 3978 ft | 212 kts | 200° |
| 2026-05-07 01:50 | 42.58397 | -70.89801 | 3975 ft | 211 kts | 205° |
| 2026-05-07 01:50 | 42.57034 | -70.90515 | 3975 ft | 210 kts | 206° |
| 2026-05-07 01:50 | 42.55661 | -70.91205 | 3920 ft | 210 kts | 205° |
| 2026-05-07 01:50 | 42.54287 | -70.91857 | 3650 ft | 209 kts | 205° |
| 2026-05-07 01:51 | 42.52937 | -70.92511 | 3336 ft | 208 kts | 206° |
| 2026-05-07 01:51 | 42.51580 | -70.93178 | 3023 ft | 208 kts | 206° |
| 2026-05-07 01:51 | 42.50222 | -70.93838 | 2725 ft | 205 kts | 205° |
| 2026-05-07 01:51 | 42.48891 | -70.94484 | 2445 ft | 198 kts | 206° |
| 2026-05-07 01:52 | 42.47641 | -70.95091 | 2219 ft | 184 kts | 206° |
| 2026-05-07 01:52 | 42.46480 | -70.95657 | 1976 ft | 171 kts | 206° |
| 2026-05-07 01:52 | 42.45410 | -70.96175 | 1744 ft | 154 kts | 206° |
| 2026-05-07 01:52 | 42.44465 | -70.96632 | 1550 ft | 136 kts | 207° |
| 2026-05-07 01:53 | 42.43616 | -70.97049 | 1361 ft | 124 kts | 207° |
| 2026-05-07 01:53 | 42.42837 | -70.97427 | 1204 ft | 117 kts | 207° |
| 2026-05-07 01:53 | 42.42060 | -70.97809 | 1038 ft | 120 kts | 206° |
| 2026-05-07 01:53 | 42.41265 | -70.98198 | 866 ft | 123 kts | 203° |
| 2026-05-07 01:54 | 42.40453 | -70.98590 | 702 ft | 123 kts | 200° |
| 2026-05-07 01:54 | 42.39665 | -70.98970 | 539 ft | 119 kts | 199° |
| 2026-05-07 01:54 | 42.38873 | -70.99355 | 379 ft | 126 kts | 199° |
| 2026-05-07 01:54 | 42.38044 | -70.99756 | 166 ft | 127 kts | 199° |
| 2026-05-07 01:55 | 42.37234 | -71.00138 | 47 ft | 120 kts | 200° |
| 2026-05-07 01:55 | 42.36540 | -71.00495 | 32 ft | 82 kts | 199° |
| 2026-05-07 01:55 | 42.36185 | -71.00662 | 32 ft | 26 kts | 199° |
| 2026-05-07 01:55 | 42.36090 | -71.00710 | 33 ft | 13 kts | 202° |
| 2026-05-07 01:56 | 42.36012 | -71.00776 | 32 ft | 13 kts | 221° |
| 2026-05-07 01:56 | 42.35948 | -71.00869 | 32 ft | 12 kts | 229° |
| 2026-05-07 01:56 | 42.35888 | -71.00961 | 32 ft | 13 kts | 229° |
| 2026-05-07 01:56 | 42.35838 | -71.01061 | 32 ft | 13 kts | 252° |
| 2026-05-07 01:57 | 42.35839 | -71.01180 | 32 ft | 11 kts | 276° |
| 2026-05-07 01:57 | 42.35849 | -71.01275 | 32 ft | 9 kts | 278° |
| 2026-05-07 01:57 | 42.35859 | -71.01368 | 32 ft | 11 kts | 278° |
| 2026-05-07 01:57 | 42.35871 | -71.01468 | 32 ft | 5 kts | 279° |
| 2026-05-07 01:58 | 42.35890 | -71.01521 | 32 ft | 8 kts | 314° |
| 2026-05-07 01:58 | 42.35943 | -71.01526 | 32 ft | 9 kts | 13° |
| 2026-05-07 01:58 | 42.36016 | -71.01489 | 32 ft | 13 kts | 21° |
| 2026-05-07 01:58 | 42.36115 | -71.01440 | 32 ft | 17 kts | 19° |
| 2026-05-07 01:59 | 42.36230 | -71.01385 | 32 ft | 13 kts | 19° |
| 2026-05-07 01:59 | 42.36311 | -71.01346 | 32 ft | 14 kts | 19° |
| 2026-05-07 01:59 | 42.36410 | -71.01298 | 32 ft | 16 kts | 19° |
| 2026-05-07 01:59 | 42.36516 | -71.01247 | 32 ft | 10 kts | 19° |
| 2026-05-07 02:00 | 42.36564 | -71.01245 | 32 ft | 7 kts | 326° |
| 2026-05-07 02:00 | 42.36617 | -71.01275 | 32 ft | 10 kts | 356° |
| 2026-05-07 02:00 | 42.36686 | -71.01255 | 32 ft | 11 kts | 15° |
| 2026-05-07 02:00 | 42.36757 | -71.01251 | 29 ft | 10 kts | 345° |
| 2026-05-07 02:01 | 42.36820 | -71.01309 | 32 ft | 11 kts | 317° |
| 2026-05-07 02:01 | 42.36874 | -71.01381 | 32 ft | 12 kts | 315° |
| 2026-05-07 02:01 | 42.36926 | -71.01451 | 32 ft | 10 kts | 315° |
| 2026-05-07 02:01 | 42.36972 | -71.01522 | 32 ft | 10 kts | 314° |
| 2026-05-07 02:02 | 42.37028 | -71.01595 | 32 ft | 13 kts | 316° |
| 2026-05-07 02:02 | 42.37087 | -71.01684 | 32 ft | 12 kts | 307° |
| 2026-05-07 02:02 | 42.37117 | -71.01745 | 32 ft | 7 kts | 302° |
| 2026-05-07 02:02 | 42.37132 | -71.01792 | 32 ft | 4 kts | 271° |
| 2026-05-07 02:03 | 42.37116 | -71.01823 | 32 ft | 5 kts | 225° |
| 2026-05-07 02:03 | 42.37085 | -71.01853 | 32 ft | 3 kts | 213° |
| 2026-05-07 02:03 | 42.37083 | -71.01855 | 32 ft | 0 kts | 213° |